<?xml version='1.0' encoding='UTF-8'?>
<gpx version="1.1" creator="https://www.komoot.de" xmlns="http://www.topografix.com/GPX/1/1" xmlns:xsi="http://www.w3.org/2001/XMLSchema-instance" xsi:schemaLocation="http://www.topografix.com/GPX/1/1 http://www.topografix.com/GPX/1/1/gpx.xsd">
  <metadata>
    <name>GPX Download: Dennenloher See – Surfcenter Altmühlsee Runde von Gunzenhausen</name>
    <author>
      <link href="https://www.komoot.de">
        <text>komoot</text>
        <type>text/html</type>
      </link>
    </author>
  </metadata>
  <wpt lat="49.113220" lon="10.709333">
    <name>Obere Heid</name>
    <sym>Flag, Blue</sym>
  </wpt>
  <wpt lat="49.108937" lon="10.617779">
    <name>Römischer Limes</name>
    <sym>Flag, Blue</sym>
  </wpt>
  <wpt lat="49.102979" lon="10.617994">
    <name>Dennenloher See</name>
    <sym>Flag, Blue</sym>
  </wpt>
  <wpt lat="49.101263" lon="10.606002">
    <name>Baumgesäumte Allee bei Dennenlohe</name>
    <sym>Flag, Blue</sym>
  </wpt>
  <wpt lat="49.104092" lon="10.580322">
    <name>Kreutweiher</name>
    <sym>Flag, Blue</sym>
  </wpt>
  <wpt lat="49.115303" lon="10.552117">
    <name>Unterer Brunnweiher</name>
    <sym>Flag, Blue</sym>
  </wpt>
  <wpt lat="49.117188" lon="10.545745">
    <name>Oberer Brunnweiher</name>
    <sym>Flag, Blue</sym>
  </wpt>
  <wpt lat="49.134510" lon="10.548674">
    <name>Geißbühl</name>
    <sym>Summit</sym>
  </wpt>
  <wpt lat="49.145195" lon="10.705151">
    <name>Vogelinsel am Altmühlsee</name>
    <sym>Flag, Blue</sym>
  </wpt>
  <wpt lat="49.148027" lon="10.708167">
    <name>Vogelinsel</name>
    <sym>Flag, Blue</sym>
  </wpt>
  <wpt lat="49.142840" lon="10.729131">
    <name>Blick auf den Altmühlsee</name>
    <sym>Flag, Blue</sym>
  </wpt>
  <wpt lat="49.130928" lon="10.734560">
    <name>Surfcenter Altmühlsee</name>
    <sym>Flag, Blue</sym>
  </wpt>
  <trk>
    <name>GPX Download: Dennenloher See – Surfcenter Altmühlsee Runde von Gunzenhausen</name>
    <trkseg>
      <trkpt lat="49.110341" lon="10.755098">
        <ele>414.767616</ele>
        <time>2026-05-05T10:00:03.322Z</time>
      </trkpt>
      <trkpt lat="49.110278" lon="10.755257">
        <ele>414.767616</ele>
        <time>2026-05-05T10:00:05.896Z</time>
      </trkpt>
      <trkpt lat="49.110244" lon="10.755386">
        <ele>414.767616</ele>
        <time>2026-05-05T10:00:08.399Z</time>
      </trkpt>
      <trkpt lat="49.110307" lon="10.755499">
        <ele>414.767616</ele>
        <time>2026-05-05T10:00:11.082Z</time>
      </trkpt>
      <trkpt lat="49.110528" lon="10.755470">
        <ele>414.767616</ele>
        <time>2026-05-05T10:00:15.640Z</time>
      </trkpt>
      <trkpt lat="49.110646" lon="10.755508">
        <ele>414.767616</ele>
        <time>2026-05-05T10:00:18.140Z</time>
      </trkpt>
      <trkpt lat="49.110655" lon="10.755356">
        <ele>414.767616</ele>
        <time>2026-05-05T10:00:20.929Z</time>
      </trkpt>
      <trkpt lat="49.110767" lon="10.755040">
        <ele>414.754638</ele>
        <time>2026-05-05T10:00:27.545Z</time>
      </trkpt>
      <trkpt lat="49.111056" lon="10.755032">
        <ele>414.712046</ele>
        <time>2026-05-05T10:00:38.079Z</time>
      </trkpt>
      <trkpt lat="49.111093" lon="10.754944">
        <ele>414.701957</ele>
        <time>2026-05-05T10:00:40.071Z</time>
      </trkpt>
      <trkpt lat="49.111256" lon="10.754936">
        <ele>414.677926</ele>
        <time>2026-05-05T10:00:43.801Z</time>
      </trkpt>
      <trkpt lat="49.111297" lon="10.754933">
        <ele>414.671878</ele>
        <time>2026-05-05T10:00:45.033Z</time>
      </trkpt>
      <trkpt lat="49.111425" lon="10.754938">
        <ele>414.653011</ele>
        <time>2026-05-05T10:00:48.846Z</time>
      </trkpt>
      <trkpt lat="49.111525" lon="10.754946">
        <ele>414.638255</ele>
        <time>2026-05-05T10:00:51.796Z</time>
      </trkpt>
      <trkpt lat="49.111577" lon="10.754950">
        <ele>414.630583</ele>
        <time>2026-05-05T10:00:53.327Z</time>
      </trkpt>
      <trkpt lat="49.111695" lon="10.754960">
        <ele>414.613169</ele>
        <time>2026-05-05T10:00:55.989Z</time>
      </trkpt>
      <trkpt lat="49.111765" lon="10.754996">
        <ele>414.602285</ele>
        <time>2026-05-05T10:00:57.688Z</time>
      </trkpt>
      <trkpt lat="49.111824" lon="10.754962">
        <ele>414.592993</ele>
        <time>2026-05-05T10:00:59.069Z</time>
      </trkpt>
      <trkpt lat="49.111879" lon="10.754941">
        <ele>414.584640</ele>
        <time>2026-05-05T10:01:00.313Z</time>
      </trkpt>
      <trkpt lat="49.112087" lon="10.754860">
        <ele>414.553010</ele>
        <time>2026-05-05T10:01:05.123Z</time>
      </trkpt>
      <trkpt lat="49.112473" lon="10.754568">
        <ele>414.442137</ele>
        <time>2026-05-05T10:01:15.117Z</time>
      </trkpt>
      <trkpt lat="49.113186" lon="10.753952">
        <ele>413.882670</ele>
        <time>2026-05-05T10:01:32.585Z</time>
      </trkpt>
      <trkpt lat="49.113359" lon="10.753801">
        <ele>413.746584</ele>
        <time>2026-05-05T10:01:36.667Z</time>
      </trkpt>
      <trkpt lat="49.113837" lon="10.753378">
        <ele>413.369287</ele>
        <time>2026-05-05T10:01:47.684Z</time>
      </trkpt>
      <trkpt lat="49.113949" lon="10.753296">
        <ele>413.284459</ele>
        <time>2026-05-05T10:01:50.185Z</time>
      </trkpt>
      <trkpt lat="49.114049" lon="10.753224">
        <ele>413.244944</ele>
        <time>2026-05-05T10:01:52.455Z</time>
      </trkpt>
      <trkpt lat="49.114147" lon="10.753154">
        <ele>413.211886</ele>
        <time>2026-05-05T10:01:54.677Z</time>
      </trkpt>
      <trkpt lat="49.114119" lon="10.753054">
        <ele>413.190131</ele>
        <time>2026-05-05T10:01:56.566Z</time>
      </trkpt>
      <trkpt lat="49.114113" lon="10.752979">
        <ele>413.175018</ele>
        <time>2026-05-05T10:01:57.895Z</time>
      </trkpt>
      <trkpt lat="49.114144" lon="10.752686">
        <ele>413.115651</ele>
        <time>2026-05-05T10:02:03.118Z</time>
      </trkpt>
      <trkpt lat="49.114275" lon="10.752309">
        <ele>413.030277</ele>
        <time>2026-05-05T10:02:10.841Z</time>
      </trkpt>
      <trkpt lat="49.114342" lon="10.752214">
        <ele>413.002344</ele>
        <time>2026-05-05T10:02:13.384Z</time>
      </trkpt>
      <trkpt lat="49.114486" lon="10.752106">
        <ele>412.953323</ele>
        <time>2026-05-05T10:02:17.984Z</time>
      </trkpt>
      <trkpt lat="49.114724" lon="10.751928">
        <ele>412.872348</ele>
        <time>2026-05-05T10:02:23.821Z</time>
      </trkpt>
      <trkpt lat="49.114834" lon="10.751712">
        <ele>412.817608</ele>
        <time>2026-05-05T10:02:27.737Z</time>
      </trkpt>
      <trkpt lat="49.114881" lon="10.751457">
        <ele>412.764620</ele>
        <time>2026-05-05T10:02:31.666Z</time>
      </trkpt>
      <trkpt lat="49.114879" lon="10.751108">
        <ele>412.766476</ele>
        <time>2026-05-05T10:02:37.019Z</time>
      </trkpt>
      <trkpt lat="49.114882" lon="10.750979">
        <ele>412.803082</ele>
        <time>2026-05-05T10:02:39.599Z</time>
      </trkpt>
      <trkpt lat="49.114887" lon="10.750742">
        <ele>412.870327</ele>
        <time>2026-05-05T10:02:44.407Z</time>
      </trkpt>
      <trkpt lat="49.114879" lon="10.750609">
        <ele>412.908203</ele>
        <time>2026-05-05T10:02:47.166Z</time>
      </trkpt>
      <trkpt lat="49.114782" lon="10.750428">
        <ele>412.974542</ele>
        <time>2026-05-05T10:02:51.915Z</time>
      </trkpt>
      <trkpt lat="49.113970" lon="10.749294">
        <ele>413.451185</ele>
        <time>2026-05-05T10:03:26.479Z</time>
      </trkpt>
      <trkpt lat="49.113818" lon="10.749019">
        <ele>413.531910</ele>
        <time>2026-05-05T10:03:33.920Z</time>
      </trkpt>
      <trkpt lat="49.113165" lon="10.746935">
        <ele>413.904720</ele>
        <time>2026-05-05T10:04:09.350Z</time>
      </trkpt>
      <trkpt lat="49.113125" lon="10.746915">
        <ele>413.915095</ele>
        <time>2026-05-05T10:04:10.269Z</time>
      </trkpt>
      <trkpt lat="49.113035" lon="10.746630">
        <ele>413.949930</ele>
        <time>2026-05-05T10:04:14.795Z</time>
      </trkpt>
      <trkpt lat="49.112437" lon="10.744794">
        <ele>413.998878</ele>
        <time>2026-05-05T10:04:44.094Z</time>
      </trkpt>
      <trkpt lat="49.112002" lon="10.743655">
        <ele>414.206875</ele>
        <time>2026-05-05T10:05:04.045Z</time>
      </trkpt>
      <trkpt lat="49.111922" lon="10.743536">
        <ele>414.251658</ele>
        <time>2026-05-05T10:05:06.673Z</time>
      </trkpt>
      <trkpt lat="49.111790" lon="10.743329">
        <ele>414.327528</ele>
        <time>2026-05-05T10:05:11.220Z</time>
      </trkpt>
      <trkpt lat="49.111636" lon="10.742978">
        <ele>414.438464</ele>
        <time>2026-05-05T10:05:17.911Z</time>
      </trkpt>
      <trkpt lat="49.111549" lon="10.742718">
        <ele>414.515125</ele>
        <time>2026-05-05T10:05:22.595Z</time>
      </trkpt>
      <trkpt lat="49.111399" lon="10.742294">
        <ele>414.641658</ele>
        <time>2026-05-05T10:05:30.352Z</time>
      </trkpt>
      <trkpt lat="49.111261" lon="10.741627">
        <ele>414.819597</ele>
        <time>2026-05-05T10:05:41.576Z</time>
      </trkpt>
      <trkpt lat="49.111055" lon="10.741037">
        <ele>414.984158</ele>
        <time>2026-05-05T10:05:52.207Z</time>
      </trkpt>
      <trkpt lat="49.110839" lon="10.740488">
        <ele>415.141793</ele>
        <time>2026-05-05T10:06:02.212Z</time>
      </trkpt>
      <trkpt lat="49.110793" lon="10.740428">
        <ele>415.164533</ele>
        <time>2026-05-05T10:06:03.635Z</time>
      </trkpt>
      <trkpt lat="49.110701" lon="10.740438">
        <ele>415.199208</ele>
        <time>2026-05-05T10:06:05.794Z</time>
      </trkpt>
      <trkpt lat="49.110660" lon="10.740314">
        <ele>415.233397</ele>
        <time>2026-05-05T10:06:07.884Z</time>
      </trkpt>
      <trkpt lat="49.110593" lon="10.740136">
        <ele>415.283928</ele>
        <time>2026-05-05T10:06:10.992Z</time>
      </trkpt>
      <trkpt lat="49.110583" lon="10.739966">
        <ele>415.325934</ele>
        <time>2026-05-05T10:06:13.567Z</time>
      </trkpt>
      <trkpt lat="49.110422" lon="10.739586">
        <ele>415.449131</ele>
        <time>2026-05-05T10:06:20.316Z</time>
      </trkpt>
      <trkpt lat="49.109958" lon="10.739075">
        <ele>415.758033</ele>
        <time>2026-05-05T10:06:33.446Z</time>
      </trkpt>
      <trkpt lat="49.109900" lon="10.738974">
        <ele>415.805529</ele>
        <time>2026-05-05T10:06:35.591Z</time>
      </trkpt>
      <trkpt lat="49.109831" lon="10.738822">
        <ele>415.870919</ele>
        <time>2026-05-05T10:06:38.528Z</time>
      </trkpt>
      <trkpt lat="49.109793" lon="10.738668">
        <ele>415.929099</ele>
        <time>2026-05-05T10:06:41.099Z</time>
      </trkpt>
      <trkpt lat="49.109783" lon="10.738449">
        <ele>416.006707</ele>
        <time>2026-05-05T10:06:44.574Z</time>
      </trkpt>
      <trkpt lat="49.109670" lon="10.738097">
        <ele>416.145301</ele>
        <time>2026-05-05T10:06:50.924Z</time>
      </trkpt>
      <trkpt lat="49.109349" lon="10.737638">
        <ele>416.384290</ele>
        <time>2026-05-05T10:07:02.288Z</time>
      </trkpt>
      <trkpt lat="49.109013" lon="10.737211">
        <ele>416.945637</ele>
        <time>2026-05-05T10:07:14.088Z</time>
      </trkpt>
      <trkpt lat="49.108544" lon="10.736715">
        <ele>417.678263</ele>
        <time>2026-05-05T10:07:29.779Z</time>
      </trkpt>
      <trkpt lat="49.108045" lon="10.736249">
        <ele>418.429426</ele>
        <time>2026-05-05T10:07:46.006Z</time>
      </trkpt>
      <trkpt lat="49.107561" lon="10.735903">
        <ele>419.206482</ele>
        <time>2026-05-05T10:08:00.904Z</time>
      </trkpt>
      <trkpt lat="49.107225" lon="10.735730">
        <ele>419.759315</ele>
        <time>2026-05-05T10:08:11.070Z</time>
      </trkpt>
      <trkpt lat="49.106775" lon="10.735560">
        <ele>420.482069</ele>
        <time>2026-05-05T10:08:24.230Z</time>
      </trkpt>
      <trkpt lat="49.106545" lon="10.735356">
        <ele>420.896742</ele>
        <time>2026-05-05T10:08:31.850Z</time>
      </trkpt>
      <trkpt lat="49.106582" lon="10.735189">
        <ele>421.076697</ele>
        <time>2026-05-05T10:08:35.180Z</time>
      </trkpt>
      <trkpt lat="49.106614" lon="10.735044">
        <ele>421.232882</ele>
        <time>2026-05-05T10:08:38.111Z</time>
      </trkpt>
      <trkpt lat="49.106657" lon="10.734860">
        <ele>421.432299</ele>
        <time>2026-05-05T10:08:41.852Z</time>
      </trkpt>
      <trkpt lat="49.106731" lon="10.734518">
        <ele>421.792791</ele>
        <time>2026-05-05T10:08:48.668Z</time>
      </trkpt>
      <trkpt lat="49.106888" lon="10.734004">
        <ele>422.358086</ele>
        <time>2026-05-05T10:08:59.558Z</time>
      </trkpt>
      <trkpt lat="49.106899" lon="10.733911">
        <ele>422.452275</ele>
        <time>2026-05-05T10:09:01.328Z</time>
      </trkpt>
      <trkpt lat="49.107152" lon="10.733641">
        <ele>422.922135</ele>
        <time>2026-05-05T10:09:10.252Z</time>
      </trkpt>
      <trkpt lat="49.107251" lon="10.733517">
        <ele>423.117043</ele>
        <time>2026-05-05T10:09:13.881Z</time>
      </trkpt>
      <trkpt lat="49.107379" lon="10.733254">
        <ele>423.443660</ele>
        <time>2026-05-05T10:09:19.952Z</time>
      </trkpt>
      <trkpt lat="49.107545" lon="10.732763">
        <ele>423.994414</ele>
        <time>2026-05-05T10:09:30.214Z</time>
      </trkpt>
      <trkpt lat="49.107785" lon="10.732458">
        <ele>424.196383</ele>
        <time>2026-05-05T10:09:38.817Z</time>
      </trkpt>
      <trkpt lat="49.107729" lon="10.732266">
        <ele>424.162603</ele>
        <time>2026-05-05T10:09:42.500Z</time>
      </trkpt>
      <trkpt lat="49.108249" lon="10.731437">
        <ele>423.978089</ele>
        <time>2026-05-05T10:10:01.027Z</time>
      </trkpt>
      <trkpt lat="49.108500" lon="10.731011">
        <ele>423.885982</ele>
        <time>2026-05-05T10:10:08.736Z</time>
      </trkpt>
      <trkpt lat="49.108897" lon="10.730650">
        <ele>423.598485</ele>
        <time>2026-05-05T10:10:17.469Z</time>
      </trkpt>
      <trkpt lat="49.109742" lon="10.730026">
        <ele>421.384742</ele>
        <time>2026-05-05T10:10:34.003Z</time>
      </trkpt>
      <trkpt lat="49.109902" lon="10.729834">
        <ele>420.904840</ele>
        <time>2026-05-05T10:10:37.535Z</time>
      </trkpt>
      <trkpt lat="49.109929" lon="10.729731">
        <ele>420.733530</ele>
        <time>2026-05-05T10:10:38.798Z</time>
      </trkpt>
      <trkpt lat="49.109926" lon="10.729527">
        <ele>420.418472</ele>
        <time>2026-05-05T10:10:41.144Z</time>
      </trkpt>
      <trkpt lat="49.109855" lon="10.729257">
        <ele>419.969209</ele>
        <time>2026-05-05T10:10:44.507Z</time>
      </trkpt>
      <trkpt lat="49.109848" lon="10.729035">
        <ele>419.626041</ele>
        <time>2026-05-05T10:10:47.118Z</time>
      </trkpt>
      <trkpt lat="49.109880" lon="10.728949">
        <ele>419.514774</ele>
        <time>2026-05-05T10:10:48.290Z</time>
      </trkpt>
      <trkpt lat="49.109969" lon="10.728866">
        <ele>419.401178</ele>
        <time>2026-05-05T10:10:50.094Z</time>
      </trkpt>
      <trkpt lat="49.111060" lon="10.728530">
        <ele>418.188736</ele>
        <time>2026-05-05T10:11:10.799Z</time>
      </trkpt>
      <trkpt lat="49.111140" lon="10.728506">
        <ele>418.099920</ele>
        <time>2026-05-05T10:11:12.614Z</time>
      </trkpt>
      <trkpt lat="49.111251" lon="10.728472">
        <ele>417.976590</ele>
        <time>2026-05-05T10:11:15.021Z</time>
      </trkpt>
      <trkpt lat="49.111448" lon="10.728407">
        <ele>417.757031</ele>
        <time>2026-05-05T10:11:19.406Z</time>
      </trkpt>
      <trkpt lat="49.111862" lon="10.728287">
        <ele>417.809653</ele>
        <time>2026-05-05T10:11:28.982Z</time>
      </trkpt>
      <trkpt lat="49.112011" lon="10.728150">
        <ele>417.951096</ele>
        <time>2026-05-05T10:11:33.134Z</time>
      </trkpt>
      <trkpt lat="49.112143" lon="10.727945">
        <ele>418.104189</ele>
        <time>2026-05-05T10:11:37.777Z</time>
      </trkpt>
      <trkpt lat="49.112243" lon="10.727701">
        <ele>418.257453</ele>
        <time>2026-05-05T10:11:42.594Z</time>
      </trkpt>
      <trkpt lat="49.112451" lon="10.726883">
        <ele>418.724650</ele>
        <time>2026-05-05T10:11:57.960Z</time>
      </trkpt>
      <trkpt lat="49.112459" lon="10.726843">
        <ele>418.746917</ele>
        <time>2026-05-05T10:11:58.715Z</time>
      </trkpt>
      <trkpt lat="49.112529" lon="10.726233">
        <ele>419.098095</ele>
        <time>2026-05-05T10:12:09.844Z</time>
      </trkpt>
      <trkpt lat="49.112542" lon="10.725831">
        <ele>419.514133</ele>
        <time>2026-05-05T10:12:17.225Z</time>
      </trkpt>
      <trkpt lat="49.112545" lon="10.725469">
        <ele>419.888348</ele>
        <time>2026-05-05T10:12:23.968Z</time>
      </trkpt>
      <trkpt lat="49.112536" lon="10.725114">
        <ele>420.255572</ele>
        <time>2026-05-05T10:12:30.699Z</time>
      </trkpt>
      <trkpt lat="49.112510" lon="10.724721">
        <ele>420.663871</ele>
        <time>2026-05-05T10:12:38.239Z</time>
      </trkpt>
      <trkpt lat="49.112390" lon="10.723741">
        <ele>421.694431</ele>
        <time>2026-05-05T10:12:57.244Z</time>
      </trkpt>
      <trkpt lat="49.112201" lon="10.722698">
        <ele>422.424531</ele>
        <time>2026-05-05T10:13:16.992Z</time>
      </trkpt>
      <trkpt lat="49.112152" lon="10.722363">
        <ele>422.629326</ele>
        <time>2026-05-05T10:13:23.077Z</time>
      </trkpt>
      <trkpt lat="49.112022" lon="10.721512">
        <ele>423.150688</ele>
        <time>2026-05-05T10:13:37.840Z</time>
      </trkpt>
      <trkpt lat="49.111985" lon="10.721159">
        <ele>423.363977</ele>
        <time>2026-05-05T10:13:43.729Z</time>
      </trkpt>
      <trkpt lat="49.111926" lon="10.720261">
        <ele>423.656905</ele>
        <time>2026-05-05T10:13:56.880Z</time>
      </trkpt>
      <trkpt lat="49.111926" lon="10.719293">
        <ele>423.850106</ele>
        <time>2026-05-05T10:14:10.394Z</time>
      </trkpt>
      <trkpt lat="49.111983" lon="10.718622">
        <ele>423.985153</ele>
        <time>2026-05-05T10:14:20.646Z</time>
      </trkpt>
      <trkpt lat="49.112043" lon="10.718227">
        <ele>424.066084</ele>
        <time>2026-05-05T10:14:27.336Z</time>
      </trkpt>
      <trkpt lat="49.112168" lon="10.717651">
        <ele>424.499364</ele>
        <time>2026-05-05T10:14:38.369Z</time>
      </trkpt>
      <trkpt lat="49.112386" lon="10.716879">
        <ele>425.164638</ele>
        <time>2026-05-05T10:14:54.955Z</time>
      </trkpt>
      <trkpt lat="49.112676" lon="10.715865">
        <ele>426.040216</ele>
        <time>2026-05-05T10:15:15.376Z</time>
      </trkpt>
      <trkpt lat="49.113168" lon="10.714005">
        <ele>426.320912</ele>
        <time>2026-05-05T10:15:44.092Z</time>
      </trkpt>
      <trkpt lat="49.113498" lon="10.712847">
        <ele>426.439856</ele>
        <time>2026-05-05T10:16:01.876Z</time>
      </trkpt>
      <trkpt lat="49.113638" lon="10.712355">
        <ele>426.614833</ele>
        <time>2026-05-05T10:16:10.255Z</time>
      </trkpt>
      <trkpt lat="49.113850" lon="10.711313">
        <ele>426.970726</ele>
        <time>2026-05-05T10:16:27.963Z</time>
      </trkpt>
      <trkpt lat="49.113970" lon="10.710179">
        <ele>427.414414</ele>
        <time>2026-05-05T10:16:46.905Z</time>
      </trkpt>
      <trkpt lat="49.113970" lon="10.709333">
        <ele>427.901217</ele>
        <time>2026-05-05T10:17:01.007Z</time>
      </trkpt>
      <trkpt lat="49.113970" lon="10.709073">
        <ele>428.050826</ele>
        <time>2026-05-05T10:17:05.340Z</time>
      </trkpt>
      <trkpt lat="49.113850" lon="10.707275">
        <ele>429.065635</ele>
        <time>2026-05-05T10:17:36.087Z</time>
      </trkpt>
      <trkpt lat="49.113666" lon="10.705274">
        <ele>430.113445</ele>
        <time>2026-05-05T10:18:10.942Z</time>
      </trkpt>
      <trkpt lat="49.113555" lon="10.703375">
        <ele>429.784799</ele>
        <time>2026-05-05T10:18:38.653Z</time>
      </trkpt>
      <trkpt lat="49.113532" lon="10.702302">
        <ele>429.469447</ele>
        <time>2026-05-05T10:18:52.208Z</time>
      </trkpt>
      <trkpt lat="49.113435" lon="10.700481">
        <ele>427.524083</ele>
        <time>2026-05-05T10:19:13.520Z</time>
      </trkpt>
      <trkpt lat="49.113373" lon="10.699726">
        <ele>426.696490</ele>
        <time>2026-05-05T10:19:22.256Z</time>
      </trkpt>
      <trkpt lat="49.113348" lon="10.699427">
        <ele>426.485184</ele>
        <time>2026-05-05T10:19:25.816Z</time>
      </trkpt>
      <trkpt lat="49.113324" lon="10.698904">
        <ele>426.601961</ele>
        <time>2026-05-05T10:19:32.253Z</time>
      </trkpt>
      <trkpt lat="49.113435" lon="10.697973">
        <ele>426.812740</ele>
        <time>2026-05-05T10:19:45.469Z</time>
      </trkpt>
      <trkpt lat="49.114569" lon="10.693963">
        <ele>430.328658</ele>
        <time>2026-05-05T10:21:10.749Z</time>
      </trkpt>
      <trkpt lat="49.114881" lon="10.691910">
        <ele>430.557806</ele>
        <time>2026-05-05T10:21:42.363Z</time>
      </trkpt>
      <trkpt lat="49.115202" lon="10.690382">
        <ele>428.965332</ele>
        <time>2026-05-05T10:22:00.816Z</time>
      </trkpt>
      <trkpt lat="49.115525" lon="10.688992">
        <ele>427.318712</ele>
        <time>2026-05-05T10:22:17.662Z</time>
      </trkpt>
      <trkpt lat="49.115979" lon="10.688872">
        <ele>426.842300</ele>
        <time>2026-05-05T10:22:26.215Z</time>
      </trkpt>
      <trkpt lat="49.116024" lon="10.688846">
        <ele>426.792554</ele>
        <time>2026-05-05T10:22:27.129Z</time>
      </trkpt>
      <trkpt lat="49.116120" lon="10.688704">
        <ele>426.654390</ele>
        <time>2026-05-05T10:22:29.658Z</time>
      </trkpt>
      <trkpt lat="49.116236" lon="10.688481">
        <ele>426.461610</ele>
        <time>2026-05-05T10:22:33.224Z</time>
      </trkpt>
      <trkpt lat="49.116337" lon="10.688146">
        <ele>426.211991</ele>
        <time>2026-05-05T10:22:37.875Z</time>
      </trkpt>
      <trkpt lat="49.116625" lon="10.687417">
        <ele>425.635712</ele>
        <time>2026-05-05T10:22:49.216Z</time>
      </trkpt>
      <trkpt lat="49.116792" lon="10.686822">
        <ele>425.614361</ele>
        <time>2026-05-05T10:22:58.088Z</time>
      </trkpt>
      <trkpt lat="49.117291" lon="10.684864">
        <ele>425.910487</ele>
        <time>2026-05-05T10:23:30.323Z</time>
      </trkpt>
      <trkpt lat="49.117344" lon="10.684454">
        <ele>426.178037</ele>
        <time>2026-05-05T10:23:37.354Z</time>
      </trkpt>
      <trkpt lat="49.117289" lon="10.683831">
        <ele>426.733800</ele>
        <time>2026-05-05T10:23:48.453Z</time>
      </trkpt>
      <trkpt lat="49.117114" lon="10.683162">
        <ele>427.370730</ele>
        <time>2026-05-05T10:24:01.620Z</time>
      </trkpt>
      <trkpt lat="49.117057" lon="10.682944">
        <ele>427.578267</ele>
        <time>2026-05-05T10:24:05.987Z</time>
      </trkpt>
      <trkpt lat="49.116991" lon="10.682697">
        <ele>427.814130</ele>
        <time>2026-05-05T10:24:10.898Z</time>
      </trkpt>
      <trkpt lat="49.116940" lon="10.682493">
        <ele>428.007189</ele>
        <time>2026-05-05T10:24:15.057Z</time>
      </trkpt>
      <trkpt lat="49.116881" lon="10.682286">
        <ele>428.206792</ele>
        <time>2026-05-05T10:24:19.495Z</time>
      </trkpt>
      <trkpt lat="49.116823" lon="10.682070">
        <ele>428.499426</ele>
        <time>2026-05-05T10:24:24.231Z</time>
      </trkpt>
      <trkpt lat="49.116694" lon="10.681646">
        <ele>429.574048</ele>
        <time>2026-05-05T10:24:34.091Z</time>
      </trkpt>
      <trkpt lat="49.116569" lon="10.681231">
        <ele>430.624002</ele>
        <time>2026-05-05T10:24:44.160Z</time>
      </trkpt>
      <trkpt lat="49.116366" lon="10.680773">
        <ele>431.895284</ele>
        <time>2026-05-05T10:24:57.080Z</time>
      </trkpt>
      <trkpt lat="49.116297" lon="10.680577">
        <ele>432.406784</ele>
        <time>2026-05-05T10:25:02.595Z</time>
      </trkpt>
      <trkpt lat="49.116035" lon="10.679747">
        <ele>434.524668</ele>
        <time>2026-05-05T10:25:25.992Z</time>
      </trkpt>
      <trkpt lat="49.115921" lon="10.679509">
        <ele>435.444837</ele>
        <time>2026-05-05T10:25:34.157Z</time>
      </trkpt>
      <trkpt lat="49.115683" lon="10.679177">
        <ele>437.096547</ele>
        <time>2026-05-05T10:25:48.739Z</time>
      </trkpt>
      <trkpt lat="49.115520" lon="10.678946">
        <ele>438.235989</ele>
        <time>2026-05-05T10:25:59.155Z</time>
      </trkpt>
      <trkpt lat="49.115316" lon="10.678658">
        <ele>439.659525</ele>
        <time>2026-05-05T10:26:11.759Z</time>
      </trkpt>
      <trkpt lat="49.114889" lon="10.678170">
        <ele>442.392459</ele>
        <time>2026-05-05T10:26:34.643Z</time>
      </trkpt>
      <trkpt lat="49.114730" lon="10.678094">
        <ele>443.246294</ele>
        <time>2026-05-05T10:26:41.509Z</time>
      </trkpt>
      <trkpt lat="49.113980" lon="10.677682">
        <ele>445.595103</ele>
        <time>2026-05-05T10:27:14.213Z</time>
      </trkpt>
      <trkpt lat="49.113863" lon="10.677529">
        <ele>445.985838</ele>
        <time>2026-05-05T10:27:19.972Z</time>
      </trkpt>
      <trkpt lat="49.113491" lon="10.679157">
        <ele>448.214632</ele>
        <time>2026-05-05T10:28:07.934Z</time>
      </trkpt>
      <trkpt lat="49.113360" lon="10.679487">
        <ele>447.819731</ele>
        <time>2026-05-05T10:28:16.521Z</time>
      </trkpt>
      <trkpt lat="49.112848" lon="10.679305">
        <ele>446.997999</ele>
        <time>2026-05-05T10:28:33.489Z</time>
      </trkpt>
      <trkpt lat="49.112648" lon="10.679200">
        <ele>446.667416</ele>
        <time>2026-05-05T10:28:39.997Z</time>
      </trkpt>
      <trkpt lat="49.112486" lon="10.679057">
        <ele>446.374947</ele>
        <time>2026-05-05T10:28:45.612Z</time>
      </trkpt>
      <trkpt lat="49.112452" lon="10.678762">
        <ele>446.068452</ele>
        <time>2026-05-05T10:28:51.447Z</time>
      </trkpt>
      <trkpt lat="49.112314" lon="10.678371">
        <ele>445.606898</ele>
        <time>2026-05-05T10:29:00.101Z</time>
      </trkpt>
      <trkpt lat="49.112338" lon="10.678090">
        <ele>445.251510</ele>
        <time>2026-05-05T10:29:05.729Z</time>
      </trkpt>
      <trkpt lat="49.112298" lon="10.677988">
        <ele>445.102392</ele>
        <time>2026-05-05T10:29:08.112Z</time>
      </trkpt>
      <trkpt lat="49.112310" lon="10.677237">
        <ele>444.160283</ele>
        <time>2026-05-05T10:29:23.494Z</time>
      </trkpt>
      <trkpt lat="49.112157" lon="10.676942">
        <ele>443.688270</ele>
        <time>2026-05-05T10:29:30.983Z</time>
      </trkpt>
      <trkpt lat="49.112171" lon="10.676413">
        <ele>443.024308</ele>
        <time>2026-05-05T10:29:41.878Z</time>
      </trkpt>
      <trkpt lat="49.112324" lon="10.676023">
        <ele>442.454094</ele>
        <time>2026-05-05T10:29:51.801Z</time>
      </trkpt>
      <trkpt lat="49.112267" lon="10.675732">
        <ele>442.164286</ele>
        <time>2026-05-05T10:29:58.931Z</time>
      </trkpt>
      <trkpt lat="49.112130" lon="10.675456">
        <ele>442.044372</ele>
        <time>2026-05-05T10:30:06.870Z</time>
      </trkpt>
      <trkpt lat="49.112911" lon="10.675883">
        <ele>441.605665</ele>
        <time>2026-05-05T10:30:36.716Z</time>
      </trkpt>
      <trkpt lat="49.112366" lon="10.674667">
        <ele>441.062239</ele>
        <time>2026-05-05T10:30:56.968Z</time>
      </trkpt>
      <trkpt lat="49.112237" lon="10.674290">
        <ele>440.882828</ele>
        <time>2026-05-05T10:31:01.976Z</time>
      </trkpt>
      <trkpt lat="49.112206" lon="10.673535">
        <ele>440.563785</ele>
        <time>2026-05-05T10:31:11.024Z</time>
      </trkpt>
      <trkpt lat="49.112200" lon="10.672916">
        <ele>440.302697</ele>
        <time>2026-05-05T10:31:19.034Z</time>
      </trkpt>
      <trkpt lat="49.112135" lon="10.671782">
        <ele>440.956221</ele>
        <time>2026-05-05T10:31:36.603Z</time>
      </trkpt>
      <trkpt lat="49.112013" lon="10.670232">
        <ele>443.100586</ele>
        <time>2026-05-05T10:32:09.165Z</time>
      </trkpt>
      <trkpt lat="49.111994" lon="10.670000">
        <ele>443.421739</ele>
        <time>2026-05-05T10:32:14.843Z</time>
      </trkpt>
      <trkpt lat="49.111868" lon="10.669357">
        <ele>444.559062</ele>
        <time>2026-05-05T10:32:31.551Z</time>
      </trkpt>
      <trkpt lat="49.111822" lon="10.667652">
        <ele>447.953682</ele>
        <time>2026-05-05T10:33:11.212Z</time>
      </trkpt>
      <trkpt lat="49.111702" lon="10.666711">
        <ele>449.964744</ele>
        <time>2026-05-05T10:33:29.613Z</time>
      </trkpt>
      <trkpt lat="49.111640" lon="10.665753">
        <ele>452.254276</ele>
        <time>2026-05-05T10:33:50.980Z</time>
      </trkpt>
      <trkpt lat="49.111665" lon="10.664517">
        <ele>455.195276</ele>
        <time>2026-05-05T10:34:23.172Z</time>
      </trkpt>
      <trkpt lat="49.111711" lon="10.664167">
        <ele>456.041608</ele>
        <time>2026-05-05T10:34:32.912Z</time>
      </trkpt>
      <trkpt lat="49.111859" lon="10.663872">
        <ele>456.912366</ele>
        <time>2026-05-05T10:34:43.284Z</time>
      </trkpt>
      <trkpt lat="49.112135" lon="10.663669">
        <ele>458.008698</ele>
        <time>2026-05-05T10:34:55.765Z</time>
      </trkpt>
      <trkpt lat="49.112421" lon="10.663614">
        <ele>459.040375</ele>
        <time>2026-05-05T10:35:06.634Z</time>
      </trkpt>
      <trkpt lat="49.112527" lon="10.663545">
        <ele>459.452754</ele>
        <time>2026-05-05T10:35:10.753Z</time>
      </trkpt>
      <trkpt lat="49.112587" lon="10.663476">
        <ele>459.721536</ele>
        <time>2026-05-05T10:35:13.324Z</time>
      </trkpt>
      <trkpt lat="49.112707" lon="10.663144">
        <ele>460.610022</ele>
        <time>2026-05-05T10:35:21.500Z</time>
      </trkpt>
      <trkpt lat="49.112679" lon="10.662600">
        <ele>461.888400</ele>
        <time>2026-05-05T10:35:32.874Z</time>
      </trkpt>
      <trkpt lat="49.112585" lon="10.661818">
        <ele>463.612342</ele>
        <time>2026-05-05T10:35:49.672Z</time>
      </trkpt>
      <trkpt lat="49.112418" lon="10.660827">
        <ele>465.780267</ele>
        <time>2026-05-05T10:36:12.634Z</time>
      </trkpt>
      <trkpt lat="49.112154" lon="10.659926">
        <ele>467.871585</ele>
        <time>2026-05-05T10:36:36.935Z</time>
      </trkpt>
      <trkpt lat="49.111830" lon="10.659002">
        <ele>470.387170</ele>
        <time>2026-05-05T10:37:03.195Z</time>
      </trkpt>
      <trkpt lat="49.111398" lon="10.657769">
        <ele>473.793635</ele>
        <time>2026-05-05T10:37:37.460Z</time>
      </trkpt>
      <trkpt lat="49.111241" lon="10.656866">
        <ele>475.722557</ele>
        <time>2026-05-05T10:37:59.080Z</time>
      </trkpt>
      <trkpt lat="49.111241" lon="10.656211">
        <ele>476.876533</ele>
        <time>2026-05-05T10:38:13.832Z</time>
      </trkpt>
      <trkpt lat="49.111287" lon="10.655427">
        <ele>478.263318</ele>
        <time>2026-05-05T10:38:31.014Z</time>
      </trkpt>
      <trkpt lat="49.111085" lon="10.652405">
        <ele>482.099063</ele>
        <time>2026-05-05T10:39:30.425Z</time>
      </trkpt>
      <trkpt lat="49.110939" lon="10.650400">
        <ele>482.828175</ele>
        <time>2026-05-05T10:40:03.866Z</time>
      </trkpt>
      <trkpt lat="49.110742" lon="10.647328">
        <ele>482.591634</ele>
        <time>2026-05-05T10:40:44.395Z</time>
      </trkpt>
      <trkpt lat="49.110637" lon="10.645322">
        <ele>482.549378</ele>
        <time>2026-05-05T10:41:15.547Z</time>
      </trkpt>
      <trkpt lat="49.110793" lon="10.645233">
        <ele>482.581985</ele>
        <time>2026-05-05T10:41:19.527Z</time>
      </trkpt>
      <trkpt lat="49.110590" lon="10.643193">
        <ele>482.673880</ele>
        <time>2026-05-05T10:41:50.166Z</time>
      </trkpt>
      <trkpt lat="49.110419" lon="10.641291">
        <ele>482.439886</ele>
        <time>2026-05-05T10:42:17.439Z</time>
      </trkpt>
      <trkpt lat="49.110347" lon="10.640520">
        <ele>481.862370</ele>
        <time>2026-05-05T10:42:27.302Z</time>
      </trkpt>
      <trkpt lat="49.110334" lon="10.640056">
        <ele>481.456215</ele>
        <time>2026-05-05T10:42:32.966Z</time>
      </trkpt>
      <trkpt lat="49.110328" lon="10.639875">
        <ele>481.297722</ele>
        <time>2026-05-05T10:42:35.128Z</time>
      </trkpt>
      <trkpt lat="49.110208" lon="10.639220">
        <ele>480.702892</ele>
        <time>2026-05-05T10:42:43.222Z</time>
      </trkpt>
      <trkpt lat="49.110079" lon="10.638732">
        <ele>480.242634</ele>
        <time>2026-05-05T10:42:49.543Z</time>
      </trkpt>
      <trkpt lat="49.109932" lon="10.638271">
        <ele>479.723229</ele>
        <time>2026-05-05T10:42:55.613Z</time>
      </trkpt>
      <trkpt lat="49.109809" lon="10.638063">
        <ele>479.401129</ele>
        <time>2026-05-05T10:42:58.890Z</time>
      </trkpt>
      <trkpt lat="49.109704" lon="10.637994">
        <ele>479.200479</ele>
        <time>2026-05-05T10:43:00.923Z</time>
      </trkpt>
      <trkpt lat="49.109687" lon="10.637490">
        <ele>478.620554</ele>
        <time>2026-05-05T10:43:07.040Z</time>
      </trkpt>
      <trkpt lat="49.109731" lon="10.637194">
        <ele>478.271755</ele>
        <time>2026-05-05T10:43:10.709Z</time>
      </trkpt>
      <trkpt lat="49.110054" lon="10.636604">
        <ele>477.387932</ele>
        <time>2026-05-05T10:43:20.181Z</time>
      </trkpt>
      <trkpt lat="49.110154" lon="10.636287">
        <ele>476.983573</ele>
        <time>2026-05-05T10:43:24.562Z</time>
      </trkpt>
      <trkpt lat="49.110181" lon="10.636025">
        <ele>476.626105</ele>
        <time>2026-05-05T10:43:27.868Z</time>
      </trkpt>
      <trkpt lat="49.110176" lon="10.635763">
        <ele>476.238659</ele>
        <time>2026-05-05T10:43:31.174Z</time>
      </trkpt>
      <trkpt lat="49.110021" lon="10.633752">
        <ele>473.245512</ele>
        <time>2026-05-05T10:43:56.413Z</time>
      </trkpt>
      <trkpt lat="49.110031" lon="10.633404">
        <ele>472.607131</ele>
        <time>2026-05-05T10:44:00.171Z</time>
      </trkpt>
      <trkpt lat="49.110103" lon="10.632967">
        <ele>470.776979</ele>
        <time>2026-05-05T10:44:04.816Z</time>
      </trkpt>
      <trkpt lat="49.110242" lon="10.632556">
        <ele>468.898164</ele>
        <time>2026-05-05T10:44:09.400Z</time>
      </trkpt>
      <trkpt lat="49.110399" lon="10.632287">
        <ele>467.434493</ele>
        <time>2026-05-05T10:44:12.890Z</time>
      </trkpt>
      <trkpt lat="49.110597" lon="10.632060">
        <ele>465.898598</ele>
        <time>2026-05-05T10:44:16.544Z</time>
      </trkpt>
      <trkpt lat="49.110854" lon="10.631827">
        <ele>464.044464</ele>
        <time>2026-05-05T10:44:20.963Z</time>
      </trkpt>
      <trkpt lat="49.111312" lon="10.631570">
        <ele>461.360307</ele>
        <time>2026-05-05T10:44:28.323Z</time>
      </trkpt>
      <trkpt lat="49.111201" lon="10.631101">
        <ele>460.446811</ele>
        <time>2026-05-05T10:44:33.218Z</time>
      </trkpt>
      <trkpt lat="49.111181" lon="10.630856">
        <ele>459.994566</ele>
        <time>2026-05-05T10:44:35.713Z</time>
      </trkpt>
      <trkpt lat="49.110963" lon="10.624595">
        <ele>449.596233</ele>
        <time>2026-05-05T10:45:47.032Z</time>
      </trkpt>
      <trkpt lat="49.110914" lon="10.624047">
        <ele>448.942050</ele>
        <time>2026-05-05T10:45:53.607Z</time>
      </trkpt>
      <trkpt lat="49.110419" lon="10.620750">
        <ele>446.180625</ele>
        <time>2026-05-05T10:46:35.541Z</time>
      </trkpt>
      <trkpt lat="49.110401" lon="10.620625">
        <ele>446.127993</ele>
        <time>2026-05-05T10:46:37.165Z</time>
      </trkpt>
      <trkpt lat="49.110372" lon="10.620414">
        <ele>446.039331</ele>
        <time>2026-05-05T10:46:39.911Z</time>
      </trkpt>
      <trkpt lat="49.110248" lon="10.619530">
        <ele>445.667552</ele>
        <time>2026-05-05T10:46:51.479Z</time>
      </trkpt>
      <trkpt lat="49.110147" lon="10.619109">
        <ele>445.483163</ele>
        <time>2026-05-05T10:46:57.392Z</time>
      </trkpt>
      <trkpt lat="49.110055" lon="10.618859">
        <ele>445.365223</ele>
        <time>2026-05-05T10:47:01.257Z</time>
      </trkpt>
      <trkpt lat="49.109816" lon="10.618425">
        <ele>445.131993</ele>
        <time>2026-05-05T10:47:09.201Z</time>
      </trkpt>
      <trkpt lat="49.109467" lon="10.618095">
        <ele>445.517491</ele>
        <time>2026-05-05T10:47:18.313Z</time>
      </trkpt>
      <trkpt lat="49.108958" lon="10.617829">
        <ele>446.152369</ele>
        <time>2026-05-05T10:47:32.114Z</time>
      </trkpt>
      <trkpt lat="49.108778" lon="10.617774">
        <ele>446.369006</ele>
        <time>2026-05-05T10:47:37.435Z</time>
      </trkpt>
      <trkpt lat="49.108518" lon="10.617710">
        <ele>446.679805</ele>
        <time>2026-05-05T10:47:45.385Z</time>
      </trkpt>
      <trkpt lat="49.108345" lon="10.617716">
        <ele>446.884025</ele>
        <time>2026-05-05T10:47:50.715Z</time>
      </trkpt>
      <trkpt lat="49.107769" lon="10.617714">
        <ele>447.484799</ele>
        <time>2026-05-05T10:48:08.736Z</time>
      </trkpt>
      <trkpt lat="49.107465" lon="10.617678">
        <ele>447.761881</ele>
        <time>2026-05-05T10:48:17.951Z</time>
      </trkpt>
      <trkpt lat="49.106881" lon="10.617461">
        <ele>448.308053</ele>
        <time>2026-05-05T10:48:34.610Z</time>
      </trkpt>
      <trkpt lat="49.106142" lon="10.617066">
        <ele>448.545697</ele>
        <time>2026-05-05T10:48:50.824Z</time>
      </trkpt>
      <trkpt lat="49.105883" lon="10.616980">
        <ele>448.093758</ele>
        <time>2026-05-05T10:48:55.632Z</time>
      </trkpt>
      <trkpt lat="49.105718" lon="10.616965">
        <ele>447.811915</ele>
        <time>2026-05-05T10:48:58.540Z</time>
      </trkpt>
      <trkpt lat="49.105533" lon="10.617013">
        <ele>447.491950</ele>
        <time>2026-05-05T10:49:01.787Z</time>
      </trkpt>
      <trkpt lat="49.105325" lon="10.617184">
        <ele>447.089180</ele>
        <time>2026-05-05T10:49:05.837Z</time>
      </trkpt>
      <trkpt lat="49.104763" lon="10.617856">
        <ele>445.872208</ele>
        <time>2026-05-05T10:49:18.158Z</time>
      </trkpt>
      <trkpt lat="49.104588" lon="10.618030">
        <ele>445.799299</ele>
        <time>2026-05-05T10:49:21.838Z</time>
      </trkpt>
      <trkpt lat="49.104389" lon="10.618149">
        <ele>445.814588</ele>
        <time>2026-05-05T10:49:25.721Z</time>
      </trkpt>
      <trkpt lat="49.103939" lon="10.618285">
        <ele>445.847405</ele>
        <time>2026-05-05T10:49:35.159Z</time>
      </trkpt>
      <trkpt lat="49.103770" lon="10.618292">
        <ele>445.859500</ele>
        <time>2026-05-05T10:49:39.050Z</time>
      </trkpt>
      <trkpt lat="49.103432" lon="10.618223">
        <ele>445.883896</ele>
        <time>2026-05-05T10:49:47.639Z</time>
      </trkpt>
      <trkpt lat="49.102979" lon="10.617995">
        <ele>445.942684</ele>
        <time>2026-05-05T10:50:01.249Z</time>
      </trkpt>
      <trkpt lat="49.102703" lon="10.617803">
        <ele>446.335081</ele>
        <time>2026-05-05T10:50:10.756Z</time>
      </trkpt>
      <trkpt lat="49.102596" lon="10.617680">
        <ele>446.508351</ele>
        <time>2026-05-05T10:50:15.146Z</time>
      </trkpt>
      <trkpt lat="49.102512" lon="10.617522">
        <ele>446.680762</ele>
        <time>2026-05-05T10:50:19.585Z</time>
      </trkpt>
      <trkpt lat="49.102346" lon="10.617051">
        <ele>447.133882</ele>
        <time>2026-05-05T10:50:30.954Z</time>
      </trkpt>
      <trkpt lat="49.102283" lon="10.616929">
        <ele>447.265506</ele>
        <time>2026-05-05T10:50:33.914Z</time>
      </trkpt>
      <trkpt lat="49.102188" lon="10.616830">
        <ele>447.414306</ele>
        <time>2026-05-05T10:50:37.023Z</time>
      </trkpt>
      <trkpt lat="49.101844" lon="10.616621">
        <ele>447.893312</ele>
        <time>2026-05-05T10:50:45.880Z</time>
      </trkpt>
      <trkpt lat="49.101760" lon="10.616512">
        <ele>448.035923</ele>
        <time>2026-05-05T10:50:48.295Z</time>
      </trkpt>
      <trkpt lat="49.101696" lon="10.616273">
        <ele>448.238945</ele>
        <time>2026-05-05T10:50:51.906Z</time>
      </trkpt>
      <trkpt lat="49.101706" lon="10.615994">
        <ele>448.134443</ele>
        <time>2026-05-05T10:50:55.690Z</time>
      </trkpt>
      <trkpt lat="49.101960" lon="10.615089">
        <ele>447.766186</ele>
        <time>2026-05-05T10:51:08.287Z</time>
      </trkpt>
      <trkpt lat="49.102022" lon="10.614868">
        <ele>447.676264</ele>
        <time>2026-05-05T10:51:11.372Z</time>
      </trkpt>
      <trkpt lat="49.102175" lon="10.614477">
        <ele>447.505904</ele>
        <time>2026-05-05T10:51:16.896Z</time>
      </trkpt>
      <trkpt lat="49.102262" lon="10.614363">
        <ele>447.440424</ele>
        <time>2026-05-05T10:51:19.064Z</time>
      </trkpt>
      <trkpt lat="49.102408" lon="10.614244">
        <ele>447.345892</ele>
        <time>2026-05-05T10:51:22.286Z</time>
      </trkpt>
      <trkpt lat="49.103332" lon="10.613626">
        <ele>447.802047</ele>
        <time>2026-05-05T10:51:46.635Z</time>
      </trkpt>
      <trkpt lat="49.103527" lon="10.613459">
        <ele>447.969530</ele>
        <time>2026-05-05T10:51:52.607Z</time>
      </trkpt>
      <trkpt lat="49.103606" lon="10.613260">
        <ele>448.083676</ele>
        <time>2026-05-05T10:51:56.724Z</time>
      </trkpt>
      <trkpt lat="49.103650" lon="10.613065">
        <ele>448.184840</ele>
        <time>2026-05-05T10:52:00.352Z</time>
      </trkpt>
      <trkpt lat="49.103635" lon="10.612875">
        <ele>448.278705</ele>
        <time>2026-05-05T10:52:03.768Z</time>
      </trkpt>
      <trkpt lat="49.103527" lon="10.612396">
        <ele>448.527184</ele>
        <time>2026-05-05T10:52:12.804Z</time>
      </trkpt>
      <trkpt lat="49.103397" lon="10.611940">
        <ele>448.792689</ele>
        <time>2026-05-05T10:52:21.768Z</time>
      </trkpt>
      <trkpt lat="49.101915" lon="10.605749">
        <ele>451.711063</ele>
        <time>2026-05-05T10:54:11.207Z</time>
      </trkpt>
      <trkpt lat="49.101876" lon="10.605586">
        <ele>451.730704</ele>
        <time>2026-05-05T10:54:13.735Z</time>
      </trkpt>
      <trkpt lat="49.101269" lon="10.606022">
        <ele>451.846651</ele>
        <time>2026-05-05T10:54:28.219Z</time>
      </trkpt>
      <trkpt lat="49.100381" lon="10.606659">
        <ele>450.933495</ele>
        <time>2026-05-05T10:54:48.006Z</time>
      </trkpt>
      <trkpt lat="49.098899" lon="10.607742">
        <ele>450.008826</ele>
        <time>2026-05-05T10:55:21.016Z</time>
      </trkpt>
      <trkpt lat="49.098155" lon="10.608268">
        <ele>449.879032</ele>
        <time>2026-05-05T10:55:39.783Z</time>
      </trkpt>
      <trkpt lat="49.097792" lon="10.604538">
        <ele>452.797693</ele>
        <time>2026-05-05T10:56:53.928Z</time>
      </trkpt>
      <trkpt lat="49.097733" lon="10.604411">
        <ele>452.757005</ele>
        <time>2026-05-05T10:56:56.364Z</time>
      </trkpt>
      <trkpt lat="49.096880" lon="10.603524">
        <ele>452.345200</ele>
        <time>2026-05-05T10:57:16.151Z</time>
      </trkpt>
      <trkpt lat="49.096753" lon="10.603251">
        <ele>452.143396</ele>
        <time>2026-05-05T10:57:19.856Z</time>
      </trkpt>
      <trkpt lat="49.096163" lon="10.600464">
        <ele>447.316635</ele>
        <time>2026-05-05T10:57:51.726Z</time>
      </trkpt>
      <trkpt lat="49.095954" lon="10.597388">
        <ele>443.717188</ele>
        <time>2026-05-05T10:58:28.122Z</time>
      </trkpt>
      <trkpt lat="49.095945" lon="10.597192">
        <ele>443.554715</ele>
        <time>2026-05-05T10:58:32.418Z</time>
      </trkpt>
      <trkpt lat="49.095931" lon="10.596168">
        <ele>442.707772</ele>
        <time>2026-05-05T10:58:54.876Z</time>
      </trkpt>
      <trkpt lat="49.096048" lon="10.594855">
        <ele>441.896948</ele>
        <time>2026-05-05T10:59:23.784Z</time>
      </trkpt>
      <trkpt lat="49.096289" lon="10.593701">
        <ele>441.743650</ele>
        <time>2026-05-05T10:59:51.378Z</time>
      </trkpt>
      <trkpt lat="49.096568" lon="10.592685">
        <ele>441.604216</ele>
        <time>2026-05-05T11:00:20.757Z</time>
      </trkpt>
      <trkpt lat="49.096747" lon="10.592266">
        <ele>441.579998</ele>
        <time>2026-05-05T11:00:33.650Z</time>
      </trkpt>
      <trkpt lat="49.097038" lon="10.591966">
        <ele>441.556438</ele>
        <time>2026-05-05T11:00:46.913Z</time>
      </trkpt>
      <trkpt lat="49.097020" lon="10.590295">
        <ele>441.483009</ele>
        <time>2026-05-05T11:01:25.329Z</time>
      </trkpt>
      <trkpt lat="49.099009" lon="10.586604">
        <ele>440.898210</ele>
        <time>2026-05-05T11:03:19.799Z</time>
      </trkpt>
      <trkpt lat="49.099147" lon="10.586349">
        <ele>440.853408</ele>
        <time>2026-05-05T11:03:27.672Z</time>
      </trkpt>
      <trkpt lat="49.100519" lon="10.584182">
        <ele>440.550749</ele>
        <time>2026-05-05T11:04:38.206Z</time>
      </trkpt>
      <trkpt lat="49.101547" lon="10.583828">
        <ele>441.688081</ele>
        <time>2026-05-05T11:05:21.346Z</time>
      </trkpt>
      <trkpt lat="49.102478" lon="10.583344">
        <ele>442.921326</ele>
        <time>2026-05-05T11:06:04.955Z</time>
      </trkpt>
      <trkpt lat="49.103234" lon="10.582609">
        <ele>444.167742</ele>
        <time>2026-05-05T11:06:44.035Z</time>
      </trkpt>
      <trkpt lat="49.103389" lon="10.582428">
        <ele>444.439108</ele>
        <time>2026-05-05T11:06:52.626Z</time>
      </trkpt>
      <trkpt lat="49.103864" lon="10.581916">
        <ele>445.247698</ele>
        <time>2026-05-05T11:07:17.188Z</time>
      </trkpt>
      <trkpt lat="49.104382" lon="10.581775">
        <ele>444.885345</ele>
        <time>2026-05-05T11:07:36.686Z</time>
      </trkpt>
      <trkpt lat="49.104620" lon="10.581651">
        <ele>444.705674</ele>
        <time>2026-05-05T11:07:45.408Z</time>
      </trkpt>
      <trkpt lat="49.104449" lon="10.581191">
        <ele>444.458233</ele>
        <time>2026-05-05T11:07:56.817Z</time>
      </trkpt>
      <trkpt lat="49.104270" lon="10.580807">
        <ele>444.237729</ele>
        <time>2026-05-05T11:08:06.884Z</time>
      </trkpt>
      <trkpt lat="49.104060" lon="10.580336">
        <ele>443.971426</ele>
        <time>2026-05-05T11:08:18.945Z</time>
      </trkpt>
      <trkpt lat="49.103781" lon="10.580010">
        <ele>443.890349</ele>
        <time>2026-05-05T11:08:25.346Z</time>
      </trkpt>
      <trkpt lat="49.103356" lon="10.579434">
        <ele>443.759208</ele>
        <time>2026-05-05T11:08:36.751Z</time>
      </trkpt>
      <trkpt lat="49.103233" lon="10.579176">
        <ele>443.710980</ele>
        <time>2026-05-05T11:08:41.522Z</time>
      </trkpt>
      <trkpt lat="49.103132" lon="10.578581">
        <ele>443.618097</ele>
        <time>2026-05-05T11:08:51.813Z</time>
      </trkpt>
      <trkpt lat="49.103087" lon="10.578122">
        <ele>443.571054</ele>
        <time>2026-05-05T11:08:59.790Z</time>
      </trkpt>
      <trkpt lat="49.103076" lon="10.577390">
        <ele>443.763015</ele>
        <time>2026-05-05T11:09:11.853Z</time>
      </trkpt>
      <trkpt lat="49.103113" lon="10.577063">
        <ele>443.850016</ele>
        <time>2026-05-05T11:09:17.228Z</time>
      </trkpt>
      <trkpt lat="49.103287" lon="10.576430">
        <ele>444.030004</ele>
        <time>2026-05-05T11:09:28.140Z</time>
      </trkpt>
      <trkpt lat="49.103362" lon="10.575945">
        <ele>444.160655</ele>
        <time>2026-05-05T11:09:35.636Z</time>
      </trkpt>
      <trkpt lat="49.103419" lon="10.574890">
        <ele>444.359274</ele>
        <time>2026-05-05T11:09:50.370Z</time>
      </trkpt>
      <trkpt lat="49.103392" lon="10.574604">
        <ele>444.398020</ele>
        <time>2026-05-05T11:09:54.340Z</time>
      </trkpt>
      <trkpt lat="49.103256" lon="10.574104">
        <ele>444.470619</ele>
        <time>2026-05-05T11:10:01.831Z</time>
      </trkpt>
      <trkpt lat="49.103700" lon="10.573913">
        <ele>444.565091</ele>
        <time>2026-05-05T11:10:12.784Z</time>
      </trkpt>
      <trkpt lat="49.104057" lon="10.573582">
        <ele>444.687974</ele>
        <time>2026-05-05T11:10:23.601Z</time>
      </trkpt>
      <trkpt lat="49.105763" lon="10.571673">
        <ele>447.761379</ele>
        <time>2026-05-05T11:11:25.640Z</time>
      </trkpt>
      <trkpt lat="49.106920" lon="10.570497">
        <ele>448.908047</ele>
        <time>2026-05-05T11:11:59.943Z</time>
      </trkpt>
      <trkpt lat="49.108075" lon="10.569258">
        <ele>449.362143</ele>
        <time>2026-05-05T11:12:33.062Z</time>
      </trkpt>
      <trkpt lat="49.108619" lon="10.568630">
        <ele>449.500305</ele>
        <time>2026-05-05T11:12:49.072Z</time>
      </trkpt>
      <trkpt lat="49.109431" lon="10.567362">
        <ele>449.518405</ele>
        <time>2026-05-05T11:13:14.595Z</time>
      </trkpt>
      <trkpt lat="49.109800" lon="10.566651">
        <ele>449.555561</ele>
        <time>2026-05-05T11:13:27.245Z</time>
      </trkpt>
      <trkpt lat="49.111389" lon="10.562675">
        <ele>450.340197</ele>
        <time>2026-05-05T11:14:38.129Z</time>
      </trkpt>
      <trkpt lat="49.111888" lon="10.561276">
        <ele>450.572673</ele>
        <time>2026-05-05T11:15:04.233Z</time>
      </trkpt>
      <trkpt lat="49.112180" lon="10.560229">
        <ele>450.684395</ele>
        <time>2026-05-05T11:15:21.562Z</time>
      </trkpt>
      <trkpt lat="49.112475" lon="10.558862">
        <ele>450.380918</ele>
        <time>2026-05-05T11:15:40.417Z</time>
      </trkpt>
      <trkpt lat="49.112614" lon="10.558587">
        <ele>450.237280</ele>
        <time>2026-05-05T11:15:44.694Z</time>
      </trkpt>
      <trkpt lat="49.113182" lon="10.557799">
        <ele>449.752707</ele>
        <time>2026-05-05T11:15:59.611Z</time>
      </trkpt>
      <trkpt lat="49.113582" lon="10.557113">
        <ele>450.018717</ele>
        <time>2026-05-05T11:16:12.788Z</time>
      </trkpt>
      <trkpt lat="49.113720" lon="10.556796">
        <ele>450.300444</ele>
        <time>2026-05-05T11:16:19.053Z</time>
      </trkpt>
      <trkpt lat="49.113947" lon="10.556107">
        <ele>450.871255</ele>
        <time>2026-05-05T11:16:33.109Z</time>
      </trkpt>
      <trkpt lat="49.114426" lon="10.554604">
        <ele>452.291286</ele>
        <time>2026-05-05T11:17:06.153Z</time>
      </trkpt>
      <trkpt lat="49.115175" lon="10.552537">
        <ele>454.517454</ele>
        <time>2026-05-05T11:17:50.029Z</time>
      </trkpt>
      <trkpt lat="49.115287" lon="10.552107">
        <ele>454.619705</ele>
        <time>2026-05-05T11:17:57.781Z</time>
      </trkpt>
      <trkpt lat="49.115392" lon="10.551699">
        <ele>454.716567</ele>
        <time>2026-05-05T11:18:04.980Z</time>
      </trkpt>
      <trkpt lat="49.115663" lon="10.550125">
        <ele>455.046311</ele>
        <time>2026-05-05T11:18:28.583Z</time>
      </trkpt>
      <trkpt lat="49.115771" lon="10.549723">
        <ele>454.727389</ele>
        <time>2026-05-05T11:18:34.208Z</time>
      </trkpt>
      <trkpt lat="49.116088" lon="10.549202">
        <ele>454.205324</ele>
        <time>2026-05-05T11:18:43.105Z</time>
      </trkpt>
      <trkpt lat="49.116320" lon="10.548749">
        <ele>453.783181</ele>
        <time>2026-05-05T11:18:49.981Z</time>
      </trkpt>
      <trkpt lat="49.116376" lon="10.548559">
        <ele>453.630252</ele>
        <time>2026-05-05T11:18:52.445Z</time>
      </trkpt>
      <trkpt lat="49.116480" lon="10.547894">
        <ele>453.128463</ele>
        <time>2026-05-05T11:19:00.560Z</time>
      </trkpt>
      <trkpt lat="49.116543" lon="10.547281">
        <ele>452.913006</ele>
        <time>2026-05-05T11:19:08.294Z</time>
      </trkpt>
      <trkpt lat="49.116583" lon="10.545709">
        <ele>452.488636</ele>
        <time>2026-05-05T11:19:29.624Z</time>
      </trkpt>
      <trkpt lat="49.116543" lon="10.547281">
        <ele>452.407116</ele>
        <time>2026-05-05T11:19:54.063Z</time>
      </trkpt>
      <trkpt lat="49.116480" lon="10.547894">
        <ele>452.472163</ele>
        <time>2026-05-05T11:20:03.502Z</time>
      </trkpt>
      <trkpt lat="49.116376" lon="10.548559">
        <ele>452.543837</ele>
        <time>2026-05-05T11:20:13.487Z</time>
      </trkpt>
      <trkpt lat="49.117681" lon="10.548469">
        <ele>452.886092</ele>
        <time>2026-05-05T11:20:45.669Z</time>
      </trkpt>
      <trkpt lat="49.118677" lon="10.548491">
        <ele>453.267098</ele>
        <time>2026-05-05T11:21:12.800Z</time>
      </trkpt>
      <trkpt lat="49.120031" lon="10.548779">
        <ele>454.398381</ele>
        <time>2026-05-05T11:21:50.867Z</time>
      </trkpt>
      <trkpt lat="49.120879" lon="10.549104">
        <ele>455.515115</ele>
        <time>2026-05-05T11:22:16.231Z</time>
      </trkpt>
      <trkpt lat="49.121478" lon="10.549575">
        <ele>456.513709</ele>
        <time>2026-05-05T11:22:37.883Z</time>
      </trkpt>
      <trkpt lat="49.122170" lon="10.550376">
        <ele>457.382562</ele>
        <time>2026-05-05T11:23:05.595Z</time>
      </trkpt>
      <trkpt lat="49.122397" lon="10.550481">
        <ele>457.445686</ele>
        <time>2026-05-05T11:23:12.595Z</time>
      </trkpt>
      <trkpt lat="49.123145" lon="10.550697">
        <ele>457.648291</ele>
        <time>2026-05-05T11:23:32.171Z</time>
      </trkpt>
      <trkpt lat="49.123359" lon="10.550675">
        <ele>457.705377</ele>
        <time>2026-05-05T11:23:36.900Z</time>
      </trkpt>
      <trkpt lat="49.123631" lon="10.550483">
        <ele>457.675785</ele>
        <time>2026-05-05T11:23:43.175Z</time>
      </trkpt>
      <trkpt lat="49.124658" lon="10.549340">
        <ele>455.601830</ele>
        <time>2026-05-05T11:24:08.827Z</time>
      </trkpt>
      <trkpt lat="49.125285" lon="10.548907">
        <ele>454.511081</ele>
        <time>2026-05-05T11:24:22.797Z</time>
      </trkpt>
      <trkpt lat="49.126222" lon="10.548565">
        <ele>453.082048</ele>
        <time>2026-05-05T11:24:42.815Z</time>
      </trkpt>
      <trkpt lat="49.126864" lon="10.548488">
        <ele>452.148798</ele>
        <time>2026-05-05T11:24:54.561Z</time>
      </trkpt>
      <trkpt lat="49.127307" lon="10.548525">
        <ele>451.863181</ele>
        <time>2026-05-05T11:25:02.753Z</time>
      </trkpt>
      <trkpt lat="49.127968" lon="10.548653">
        <ele>451.434244</ele>
        <time>2026-05-05T11:25:15.603Z</time>
      </trkpt>
      <trkpt lat="49.130416" lon="10.548815">
        <ele>451.590971</ele>
        <time>2026-05-05T11:26:13.128Z</time>
      </trkpt>
      <trkpt lat="49.131293" lon="10.548887">
        <ele>451.851870</ele>
        <time>2026-05-05T11:26:35.064Z</time>
      </trkpt>
      <trkpt lat="49.131726" lon="10.548910">
        <ele>451.980417</ele>
        <time>2026-05-05T11:26:45.096Z</time>
      </trkpt>
      <trkpt lat="49.132555" lon="10.548852">
        <ele>452.317497</ele>
        <time>2026-05-05T11:27:02.903Z</time>
      </trkpt>
      <trkpt lat="49.133859" lon="10.548619">
        <ele>453.066406</ele>
        <time>2026-05-05T11:27:34.523Z</time>
      </trkpt>
      <trkpt lat="49.134301" lon="10.548594">
        <ele>453.374306</ele>
        <time>2026-05-05T11:27:47.741Z</time>
      </trkpt>
      <trkpt lat="49.134512" lon="10.548608">
        <ele>453.535484</ele>
        <time>2026-05-05T11:27:53.905Z</time>
      </trkpt>
      <trkpt lat="49.135168" lon="10.548650">
        <ele>454.036557</ele>
        <time>2026-05-05T11:28:12.045Z</time>
      </trkpt>
      <trkpt lat="49.136139" lon="10.548771">
        <ele>454.174255</ele>
        <time>2026-05-05T11:28:47.838Z</time>
      </trkpt>
      <trkpt lat="49.136234" lon="10.548794">
        <ele>454.072058</ele>
        <time>2026-05-05T11:28:51.045Z</time>
      </trkpt>
      <trkpt lat="49.136891" lon="10.548935">
        <ele>453.367144</ele>
        <time>2026-05-05T11:29:12.636Z</time>
      </trkpt>
      <trkpt lat="49.139396" lon="10.549678">
        <ele>450.123255</ele>
        <time>2026-05-05T11:30:36.902Z</time>
      </trkpt>
      <trkpt lat="49.140008" lon="10.549774">
        <ele>448.331290</ele>
        <time>2026-05-05T11:30:56.781Z</time>
      </trkpt>
      <trkpt lat="49.140718" lon="10.549740">
        <ele>446.262222</ele>
        <time>2026-05-05T11:31:17.787Z</time>
      </trkpt>
      <trkpt lat="49.140959" lon="10.549584">
        <ele>445.499903</ele>
        <time>2026-05-05T11:31:25.187Z</time>
      </trkpt>
      <trkpt lat="49.141123" lon="10.549379">
        <ele>444.841260</ele>
        <time>2026-05-05T11:31:31.117Z</time>
      </trkpt>
      <trkpt lat="49.141333" lon="10.549254">
        <ele>443.982870</ele>
        <time>2026-05-05T11:31:37.396Z</time>
      </trkpt>
      <trkpt lat="49.141344" lon="10.549102">
        <ele>443.601804</ele>
        <time>2026-05-05T11:31:38.917Z</time>
      </trkpt>
      <trkpt lat="49.141316" lon="10.549104">
        <ele>443.495037</ele>
        <time>2026-05-05T11:31:39.349Z</time>
      </trkpt>
      <trkpt lat="49.141358" lon="10.548753">
        <ele>442.605900</ele>
        <time>2026-05-05T11:31:42.903Z</time>
      </trkpt>
      <trkpt lat="49.141500" lon="10.548197">
        <ele>441.118620</ele>
        <time>2026-05-05T11:31:48.827Z</time>
      </trkpt>
      <trkpt lat="49.142262" lon="10.546465">
        <ele>437.869599</ele>
        <time>2026-05-05T11:32:11.505Z</time>
      </trkpt>
      <trkpt lat="49.142651" lon="10.545668">
        <ele>437.542058</ele>
        <time>2026-05-05T11:32:25.555Z</time>
      </trkpt>
      <trkpt lat="49.142825" lon="10.545349">
        <ele>437.405249</ele>
        <time>2026-05-05T11:32:32.601Z</time>
      </trkpt>
      <trkpt lat="49.143759" lon="10.543909">
        <ele>438.937673</ele>
        <time>2026-05-05T11:33:12.491Z</time>
      </trkpt>
      <trkpt lat="49.144207" lon="10.542922">
        <ele>440.171299</ele>
        <time>2026-05-05T11:33:35.066Z</time>
      </trkpt>
      <trkpt lat="49.144445" lon="10.542629">
        <ele>440.308929</ele>
        <time>2026-05-05T11:33:42.999Z</time>
      </trkpt>
      <trkpt lat="49.144459" lon="10.542659">
        <ele>440.319786</ele>
        <time>2026-05-05T11:33:43.564Z</time>
      </trkpt>
      <trkpt lat="49.144856" lon="10.542324">
        <ele>440.524020</ele>
        <time>2026-05-05T11:33:54.341Z</time>
      </trkpt>
      <trkpt lat="49.145297" lon="10.542011">
        <ele>440.743003</ele>
        <time>2026-05-05T11:34:05.489Z</time>
      </trkpt>
      <trkpt lat="49.145590" lon="10.541875">
        <ele>440.880915</ele>
        <time>2026-05-05T11:34:12.422Z</time>
      </trkpt>
      <trkpt lat="49.145667" lon="10.541791">
        <ele>440.923519</ele>
        <time>2026-05-05T11:34:14.549Z</time>
      </trkpt>
      <trkpt lat="49.145710" lon="10.541558">
        <ele>440.968505</ele>
        <time>2026-05-05T11:34:18.072Z</time>
      </trkpt>
      <trkpt lat="49.145751" lon="10.540800">
        <ele>440.965661</ele>
        <time>2026-05-05T11:34:28.868Z</time>
      </trkpt>
      <trkpt lat="49.145781" lon="10.539873">
        <ele>440.962191</ele>
        <time>2026-05-05T11:34:43.051Z</time>
      </trkpt>
      <trkpt lat="49.145759" lon="10.539717">
        <ele>440.961595</ele>
        <time>2026-05-05T11:34:45.563Z</time>
      </trkpt>
      <trkpt lat="49.145688" lon="10.539535">
        <ele>440.960802</ele>
        <time>2026-05-05T11:34:48.776Z</time>
      </trkpt>
      <trkpt lat="49.145646" lon="10.539394">
        <ele>440.960223</ele>
        <time>2026-05-05T11:34:51.041Z</time>
      </trkpt>
      <trkpt lat="49.145603" lon="10.539063">
        <ele>440.958962</ele>
        <time>2026-05-05T11:34:55.759Z</time>
      </trkpt>
      <trkpt lat="49.145620" lon="10.538685">
        <ele>440.812051</ele>
        <time>2026-05-05T11:35:00.754Z</time>
      </trkpt>
      <trkpt lat="49.145691" lon="10.538161">
        <ele>440.521839</ele>
        <time>2026-05-05T11:35:07.733Z</time>
      </trkpt>
      <trkpt lat="49.145711" lon="10.538022">
        <ele>440.444653</ele>
        <time>2026-05-05T11:35:09.583Z</time>
      </trkpt>
      <trkpt lat="49.146358" lon="10.538353">
        <ele>439.879005</ele>
        <time>2026-05-05T11:35:22.978Z</time>
      </trkpt>
      <trkpt lat="49.146611" lon="10.538583">
        <ele>439.634965</ele>
        <time>2026-05-05T11:35:28.445Z</time>
      </trkpt>
      <trkpt lat="49.146563" lon="10.538686">
        <ele>439.566380</ele>
        <time>2026-05-05T11:35:30.051Z</time>
      </trkpt>
      <trkpt lat="49.146537" lon="10.539100">
        <ele>439.323686</ele>
        <time>2026-05-05T11:35:35.355Z</time>
      </trkpt>
      <trkpt lat="49.146505" lon="10.539686">
        <ele>438.961577</ele>
        <time>2026-05-05T11:35:43.123Z</time>
      </trkpt>
      <trkpt lat="49.146519" lon="10.539798">
        <ele>438.891360</ele>
        <time>2026-05-05T11:35:44.704Z</time>
      </trkpt>
      <trkpt lat="49.146559" lon="10.540031">
        <ele>438.743022</ele>
        <time>2026-05-05T11:35:48.016Z</time>
      </trkpt>
      <trkpt lat="49.146604" lon="10.540828">
        <ele>438.250411</ele>
        <time>2026-05-05T11:35:58.699Z</time>
      </trkpt>
      <trkpt lat="49.146597" lon="10.541103">
        <ele>438.080941</ele>
        <time>2026-05-05T11:36:02.341Z</time>
      </trkpt>
      <trkpt lat="49.146541" lon="10.541654">
        <ele>437.737131</ele>
        <time>2026-05-05T11:36:09.899Z</time>
      </trkpt>
      <trkpt lat="49.146538" lon="10.542090">
        <ele>437.465415</ele>
        <time>2026-05-05T11:36:15.817Z</time>
      </trkpt>
      <trkpt lat="49.146729" lon="10.542153">
        <ele>437.279268</ele>
        <time>2026-05-05T11:36:19.687Z</time>
      </trkpt>
      <trkpt lat="49.146448" lon="10.544388">
        <ele>435.788170</ele>
        <time>2026-05-05T11:36:49.747Z</time>
      </trkpt>
      <trkpt lat="49.146346" lon="10.545366">
        <ele>434.945843</ele>
        <time>2026-05-05T11:37:02.378Z</time>
      </trkpt>
      <trkpt lat="49.146279" lon="10.546105">
        <ele>434.311290</ele>
        <time>2026-05-05T11:37:11.862Z</time>
      </trkpt>
      <trkpt lat="49.146265" lon="10.546699">
        <ele>433.805745</ele>
        <time>2026-05-05T11:37:19.454Z</time>
      </trkpt>
      <trkpt lat="49.146268" lon="10.546770">
        <ele>433.745231</ele>
        <time>2026-05-05T11:37:20.328Z</time>
      </trkpt>
      <trkpt lat="49.146336" lon="10.548026">
        <ele>432.845667</ele>
        <time>2026-05-05T11:37:35.878Z</time>
      </trkpt>
      <trkpt lat="49.146442" lon="10.548940">
        <ele>432.185929</ele>
        <time>2026-05-05T11:37:47.428Z</time>
      </trkpt>
      <trkpt lat="49.146445" lon="10.549634">
        <ele>431.716373</ele>
        <time>2026-05-05T11:37:56.319Z</time>
      </trkpt>
      <trkpt lat="49.146510" lon="10.549941">
        <ele>431.559546</ele>
        <time>2026-05-05T11:38:00.464Z</time>
      </trkpt>
      <trkpt lat="49.146714" lon="10.550316">
        <ele>431.322501</ele>
        <time>2026-05-05T11:38:06.802Z</time>
      </trkpt>
      <trkpt lat="49.146946" lon="10.550808">
        <ele>431.027731</ele>
        <time>2026-05-05T11:38:14.762Z</time>
      </trkpt>
      <trkpt lat="49.147236" lon="10.551919">
        <ele>430.446374</ele>
        <time>2026-05-05T11:38:30.489Z</time>
      </trkpt>
      <trkpt lat="49.147336" lon="10.552431">
        <ele>430.203191</ele>
        <time>2026-05-05T11:38:37.396Z</time>
      </trkpt>
      <trkpt lat="49.147363" lon="10.552933">
        <ele>429.974916</ele>
        <time>2026-05-05T11:38:43.818Z</time>
      </trkpt>
      <trkpt lat="49.147383" lon="10.553647">
        <ele>429.651034</ele>
        <time>2026-05-05T11:38:52.963Z</time>
      </trkpt>
      <trkpt lat="49.147441" lon="10.554317">
        <ele>429.344741</ele>
        <time>2026-05-05T11:39:01.890Z</time>
      </trkpt>
      <trkpt lat="49.147513" lon="10.554715">
        <ele>429.176070</ele>
        <time>2026-05-05T11:39:07.543Z</time>
      </trkpt>
      <trkpt lat="49.147580" lon="10.554828">
        <ele>429.153428</ele>
        <time>2026-05-05T11:39:09.660Z</time>
      </trkpt>
      <trkpt lat="49.147696" lon="10.554887">
        <ele>429.125681</ele>
        <time>2026-05-05T11:39:12.276Z</time>
      </trkpt>
      <trkpt lat="49.149161" lon="10.554978">
        <ele>428.792901</ele>
        <time>2026-05-05T11:40:05.989Z</time>
      </trkpt>
      <trkpt lat="49.149418" lon="10.556393">
        <ele>428.543795</ele>
        <time>2026-05-05T11:40:39.793Z</time>
      </trkpt>
      <trkpt lat="49.149484" lon="10.556544">
        <ele>428.512683</ele>
        <time>2026-05-05T11:40:43.953Z</time>
      </trkpt>
      <trkpt lat="49.149726" lon="10.556664">
        <ele>428.446050</ele>
        <time>2026-05-05T11:40:52.972Z</time>
      </trkpt>
      <trkpt lat="49.149822" lon="10.556764">
        <ele>428.415626</ele>
        <time>2026-05-05T11:40:57.134Z</time>
      </trkpt>
      <trkpt lat="49.149853" lon="10.556847">
        <ele>428.399252</ele>
        <time>2026-05-05T11:40:59.410Z</time>
      </trkpt>
      <trkpt lat="49.149909" lon="10.557259">
        <ele>428.327164</ele>
        <time>2026-05-05T11:41:09.535Z</time>
      </trkpt>
      <trkpt lat="49.150013" lon="10.557533">
        <ele>428.411445</ele>
        <time>2026-05-05T11:41:17.318Z</time>
      </trkpt>
      <trkpt lat="49.150767" lon="10.558759">
        <ele>429.338569</ele>
        <time>2026-05-05T11:42:02.334Z</time>
      </trkpt>
      <trkpt lat="49.150836" lon="10.558788">
        <ele>429.398844</ele>
        <time>2026-05-05T11:42:05.423Z</time>
      </trkpt>
      <trkpt lat="49.151276" lon="10.558976">
        <ele>429.783656</ele>
        <time>2026-05-05T11:42:24.940Z</time>
      </trkpt>
      <trkpt lat="49.152025" lon="10.559588">
        <ele>429.660193</ele>
        <time>2026-05-05T11:42:58.362Z</time>
      </trkpt>
      <trkpt lat="49.152274" lon="10.559326">
        <ele>429.599920</ele>
        <time>2026-05-05T11:43:05.008Z</time>
      </trkpt>
      <trkpt lat="49.152445" lon="10.558995">
        <ele>429.544909</ele>
        <time>2026-05-05T11:43:10.721Z</time>
      </trkpt>
      <trkpt lat="49.153156" lon="10.559540">
        <ele>428.965234</ele>
        <time>2026-05-05T11:43:30.771Z</time>
      </trkpt>
      <trkpt lat="49.153285" lon="10.559738">
        <ele>428.726270</ele>
        <time>2026-05-05T11:43:35.310Z</time>
      </trkpt>
      <trkpt lat="49.153386" lon="10.559978">
        <ele>428.482250</ele>
        <time>2026-05-05T11:43:39.971Z</time>
      </trkpt>
      <trkpt lat="49.153900" lon="10.562594">
        <ele>426.403411</ele>
        <time>2026-05-05T11:44:25.600Z</time>
      </trkpt>
      <trkpt lat="49.154055" lon="10.563804">
        <ele>425.629901</ele>
        <time>2026-05-05T11:44:46.999Z</time>
      </trkpt>
      <trkpt lat="49.154138" lon="10.566437">
        <ele>424.568081</ele>
        <time>2026-05-05T11:45:33.991Z</time>
      </trkpt>
      <trkpt lat="49.154195" lon="10.566843">
        <ele>424.416993</ele>
        <time>2026-05-05T11:45:41.475Z</time>
      </trkpt>
      <trkpt lat="49.154705" lon="10.568887">
        <ele>423.847439</ele>
        <time>2026-05-05T11:46:21.269Z</time>
      </trkpt>
      <trkpt lat="49.154851" lon="10.569368">
        <ele>423.711700</ele>
        <time>2026-05-05T11:46:30.991Z</time>
      </trkpt>
      <trkpt lat="49.155399" lon="10.570613">
        <ele>423.634580</ele>
        <time>2026-05-05T11:46:58.595Z</time>
      </trkpt>
      <trkpt lat="49.155941" lon="10.571617">
        <ele>423.590969</ele>
        <time>2026-05-05T11:47:23.666Z</time>
      </trkpt>
      <trkpt lat="49.156243" lon="10.572165">
        <ele>423.892031</ele>
        <time>2026-05-05T11:47:38.574Z</time>
      </trkpt>
      <trkpt lat="49.156350" lon="10.572375">
        <ele>424.016591</ele>
        <time>2026-05-05T11:47:44.333Z</time>
      </trkpt>
      <trkpt lat="49.156473" lon="10.572583">
        <ele>424.147799</ele>
        <time>2026-05-05T11:47:49.363Z</time>
      </trkpt>
      <trkpt lat="49.156723" lon="10.572841">
        <ele>424.363585</ele>
        <time>2026-05-05T11:47:57.559Z</time>
      </trkpt>
      <trkpt lat="49.157004" lon="10.573064">
        <ele>424.590089</ele>
        <time>2026-05-05T11:48:06.020Z</time>
      </trkpt>
      <trkpt lat="49.157184" lon="10.573313">
        <ele>424.763748</ele>
        <time>2026-05-05T11:48:12.300Z</time>
      </trkpt>
      <trkpt lat="49.157330" lon="10.573584">
        <ele>424.888070</ele>
        <time>2026-05-05T11:48:18.114Z</time>
      </trkpt>
      <trkpt lat="49.157427" lon="10.573876">
        <ele>424.924719</ele>
        <time>2026-05-05T11:48:23.381Z</time>
      </trkpt>
      <trkpt lat="49.157605" lon="10.574669">
        <ele>425.018538</ele>
        <time>2026-05-05T11:48:36.822Z</time>
      </trkpt>
      <trkpt lat="49.157746" lon="10.575167">
        <ele>425.079263</ele>
        <time>2026-05-05T11:48:45.097Z</time>
      </trkpt>
      <trkpt lat="49.157846" lon="10.575419">
        <ele>425.112247</ele>
        <time>2026-05-05T11:48:49.468Z</time>
      </trkpt>
      <trkpt lat="49.157817" lon="10.575631">
        <ele>425.136483</ele>
        <time>2026-05-05T11:48:52.575Z</time>
      </trkpt>
      <trkpt lat="49.157821" lon="10.575784">
        <ele>425.153617</ele>
        <time>2026-05-05T11:48:54.763Z</time>
      </trkpt>
      <trkpt lat="49.157956" lon="10.576282">
        <ele>425.136724</ele>
        <time>2026-05-05T11:49:02.461Z</time>
      </trkpt>
      <trkpt lat="49.158285" lon="10.577499">
        <ele>424.913102</ele>
        <time>2026-05-05T11:49:21.222Z</time>
      </trkpt>
      <trkpt lat="49.158304" lon="10.577727">
        <ele>424.874072</ele>
        <time>2026-05-05T11:49:24.352Z</time>
      </trkpt>
      <trkpt lat="49.158356" lon="10.578340">
        <ele>424.769105</ele>
        <time>2026-05-05T11:49:32.639Z</time>
      </trkpt>
      <trkpt lat="49.158404" lon="10.579630">
        <ele>424.773798</ele>
        <time>2026-05-05T11:49:50.149Z</time>
      </trkpt>
      <trkpt lat="49.158357" lon="10.580293">
        <ele>424.812944</ele>
        <time>2026-05-05T11:49:59.790Z</time>
      </trkpt>
      <trkpt lat="49.158130" lon="10.581101">
        <ele>424.864565</ele>
        <time>2026-05-05T11:50:13.541Z</time>
      </trkpt>
      <trkpt lat="49.157530" lon="10.582351">
        <ele>425.352297</ele>
        <time>2026-05-05T11:50:40.146Z</time>
      </trkpt>
      <trkpt lat="49.157445" lon="10.582736">
        <ele>425.497610</ele>
        <time>2026-05-05T11:50:46.982Z</time>
      </trkpt>
      <trkpt lat="49.157448" lon="10.583165">
        <ele>425.651033</ele>
        <time>2026-05-05T11:50:53.770Z</time>
      </trkpt>
      <trkpt lat="49.157520" lon="10.583545">
        <ele>425.792513</ele>
        <time>2026-05-05T11:50:59.642Z</time>
      </trkpt>
      <trkpt lat="49.157881" lon="10.584491">
        <ele>425.393203</ele>
        <time>2026-05-05T11:51:14.458Z</time>
      </trkpt>
      <trkpt lat="49.157937" lon="10.584850">
        <ele>425.201966</ele>
        <time>2026-05-05T11:51:19.130Z</time>
      </trkpt>
      <trkpt lat="49.157942" lon="10.586296">
        <ele>424.452698</ele>
        <time>2026-05-05T11:51:37.050Z</time>
      </trkpt>
      <trkpt lat="49.158188" lon="10.587767">
        <ele>423.621282</ele>
        <time>2026-05-05T11:51:56.397Z</time>
      </trkpt>
      <trkpt lat="49.158742" lon="10.589561">
        <ele>422.534568</ele>
        <time>2026-05-05T11:52:22.395Z</time>
      </trkpt>
      <trkpt lat="49.158972" lon="10.589873">
        <ele>422.277429</ele>
        <time>2026-05-05T11:52:28.491Z</time>
      </trkpt>
      <trkpt lat="49.159205" lon="10.589806">
        <ele>422.079146</ele>
        <time>2026-05-05T11:52:33.441Z</time>
      </trkpt>
      <trkpt lat="49.159636" lon="10.589511">
        <ele>421.684223</ele>
        <time>2026-05-05T11:52:43.189Z</time>
      </trkpt>
      <trkpt lat="49.159932" lon="10.589355">
        <ele>421.422171</ele>
        <time>2026-05-05T11:52:49.570Z</time>
      </trkpt>
      <trkpt lat="49.160072" lon="10.589365">
        <ele>421.290454</ele>
        <time>2026-05-05T11:52:52.334Z</time>
      </trkpt>
      <trkpt lat="49.160120" lon="10.589368">
        <ele>421.245306</ele>
        <time>2026-05-05T11:52:53.269Z</time>
      </trkpt>
      <trkpt lat="49.160680" lon="10.589227">
        <ele>420.711927</ele>
        <time>2026-05-05T11:53:04.315Z</time>
      </trkpt>
      <trkpt lat="49.160783" lon="10.589225">
        <ele>420.615119</ele>
        <time>2026-05-05T11:53:06.310Z</time>
      </trkpt>
      <trkpt lat="49.160962" lon="10.589219">
        <ele>420.446853</ele>
        <time>2026-05-05T11:53:09.725Z</time>
      </trkpt>
      <trkpt lat="49.162129" lon="10.589580">
        <ele>420.141806</ele>
        <time>2026-05-05T11:53:34.677Z</time>
      </trkpt>
      <trkpt lat="49.163374" lon="10.589754">
        <ele>421.323549</ele>
        <time>2026-05-05T11:54:11.855Z</time>
      </trkpt>
      <trkpt lat="49.163492" lon="10.590592">
        <ele>421.598547</ele>
        <time>2026-05-05T11:54:27.686Z</time>
      </trkpt>
      <trkpt lat="49.163608" lon="10.590896">
        <ele>421.683955</ele>
        <time>2026-05-05T11:54:33.605Z</time>
      </trkpt>
      <trkpt lat="49.163703" lon="10.591148">
        <ele>421.754538</ele>
        <time>2026-05-05T11:54:38.157Z</time>
      </trkpt>
      <trkpt lat="49.163614" lon="10.591319">
        <ele>421.807570</ele>
        <time>2026-05-05T11:54:41.370Z</time>
      </trkpt>
      <trkpt lat="49.163462" lon="10.591765">
        <ele>421.929611</ele>
        <time>2026-05-05T11:54:48.325Z</time>
      </trkpt>
      <trkpt lat="49.163174" lon="10.592108">
        <ele>422.065069</ele>
        <time>2026-05-05T11:54:55.809Z</time>
      </trkpt>
      <trkpt lat="49.163148" lon="10.592158">
        <ele>422.080570</ele>
        <time>2026-05-05T11:54:56.639Z</time>
      </trkpt>
      <trkpt lat="49.162993" lon="10.592561">
        <ele>421.989186</ele>
        <time>2026-05-05T11:55:02.750Z</time>
      </trkpt>
      <trkpt lat="49.162702" lon="10.592774">
        <ele>421.844460</ele>
        <time>2026-05-05T11:55:09.455Z</time>
      </trkpt>
      <trkpt lat="49.162430" lon="10.592979">
        <ele>421.708427</ele>
        <time>2026-05-05T11:55:15.950Z</time>
      </trkpt>
      <trkpt lat="49.162300" lon="10.593152">
        <ele>421.631119</ele>
        <time>2026-05-05T11:55:19.527Z</time>
      </trkpt>
      <trkpt lat="49.162231" lon="10.593407">
        <ele>421.550164</ele>
        <time>2026-05-05T11:55:23.237Z</time>
      </trkpt>
      <trkpt lat="49.162166" lon="10.593955">
        <ele>421.386786</ele>
        <time>2026-05-05T11:55:30.666Z</time>
      </trkpt>
      <trkpt lat="49.162044" lon="10.594367">
        <ele>421.256708</ele>
        <time>2026-05-05T11:55:36.772Z</time>
      </trkpt>
      <trkpt lat="49.161699" lon="10.595667">
        <ele>420.871653</ele>
        <time>2026-05-05T11:55:56.191Z</time>
      </trkpt>
      <trkpt lat="49.161565" lon="10.596112">
        <ele>420.737193</ele>
        <time>2026-05-05T11:56:07.353Z</time>
      </trkpt>
      <trkpt lat="49.161426" lon="10.596790">
        <ele>420.542180</ele>
        <time>2026-05-05T11:56:23.698Z</time>
      </trkpt>
      <trkpt lat="49.161254" lon="10.598382">
        <ele>420.219647</ele>
        <time>2026-05-05T11:57:01.594Z</time>
      </trkpt>
      <trkpt lat="49.160995" lon="10.600016">
        <ele>419.918970</ele>
        <time>2026-05-05T11:57:41.174Z</time>
      </trkpt>
      <trkpt lat="49.160963" lon="10.600470">
        <ele>419.857483</ele>
        <time>2026-05-05T11:57:51.912Z</time>
      </trkpt>
      <trkpt lat="49.160966" lon="10.600988">
        <ele>419.787729</ele>
        <time>2026-05-05T11:58:04.116Z</time>
      </trkpt>
      <trkpt lat="49.161034" lon="10.601791">
        <ele>419.678699</ele>
        <time>2026-05-05T11:58:23.460Z</time>
      </trkpt>
      <trkpt lat="49.161078" lon="10.602600">
        <ele>419.664922</ele>
        <time>2026-05-05T11:58:43.101Z</time>
      </trkpt>
      <trkpt lat="49.161084" lon="10.603487">
        <ele>419.768285</ele>
        <time>2026-05-05T11:59:04.709Z</time>
      </trkpt>
      <trkpt lat="49.161117" lon="10.604055">
        <ele>419.834731</ele>
        <time>2026-05-05T11:59:18.696Z</time>
      </trkpt>
      <trkpt lat="49.161348" lon="10.605669">
        <ele>420.283021</ele>
        <time>2026-05-05T12:00:00.493Z</time>
      </trkpt>
      <trkpt lat="49.161457" lon="10.606271">
        <ele>420.571899</ele>
        <time>2026-05-05T12:00:16.629Z</time>
      </trkpt>
      <trkpt lat="49.161490" lon="10.606335">
        <ele>420.609591</ele>
        <time>2026-05-05T12:00:18.788Z</time>
      </trkpt>
      <trkpt lat="49.161416" lon="10.606440">
        <ele>420.680982</ele>
        <time>2026-05-05T12:00:21.274Z</time>
      </trkpt>
      <trkpt lat="49.161607" lon="10.606697">
        <ele>420.860904</ele>
        <time>2026-05-05T12:00:27.747Z</time>
      </trkpt>
      <trkpt lat="49.161759" lon="10.606981">
        <ele>421.030624</ele>
        <time>2026-05-05T12:00:34.009Z</time>
      </trkpt>
      <trkpt lat="49.161886" lon="10.607332">
        <ele>421.215957</ele>
        <time>2026-05-05T12:00:41.030Z</time>
      </trkpt>
      <trkpt lat="49.161958" lon="10.607615">
        <ele>421.347956</ele>
        <time>2026-05-05T12:00:46.427Z</time>
      </trkpt>
      <trkpt lat="49.162045" lon="10.607980">
        <ele>421.516828</ele>
        <time>2026-05-05T12:00:53.326Z</time>
      </trkpt>
      <trkpt lat="49.162229" lon="10.609058">
        <ele>422.001117</ele>
        <time>2026-05-05T12:01:12.075Z</time>
      </trkpt>
      <trkpt lat="49.162279" lon="10.609216">
        <ele>422.077417</ele>
        <time>2026-05-05T12:01:14.886Z</time>
      </trkpt>
      <trkpt lat="49.162366" lon="10.609287">
        <ele>422.142969</ele>
        <time>2026-05-05T12:01:17.282Z</time>
      </trkpt>
      <trkpt lat="49.162817" lon="10.609249">
        <ele>422.404152</ele>
        <time>2026-05-05T12:01:27.604Z</time>
      </trkpt>
      <trkpt lat="49.162988" lon="10.609426">
        <ele>422.385908</ele>
        <time>2026-05-05T12:01:31.991Z</time>
      </trkpt>
      <trkpt lat="49.163678" lon="10.610336">
        <ele>422.305403</ele>
        <time>2026-05-05T12:01:50.680Z</time>
      </trkpt>
      <trkpt lat="49.163895" lon="10.610577">
        <ele>422.281707</ele>
        <time>2026-05-05T12:01:56.386Z</time>
      </trkpt>
      <trkpt lat="49.164476" lon="10.611255">
        <ele>422.615914</ele>
        <time>2026-05-05T12:02:13.875Z</time>
      </trkpt>
      <trkpt lat="49.164691" lon="10.611503">
        <ele>422.882460</ele>
        <time>2026-05-05T12:02:21.042Z</time>
      </trkpt>
      <trkpt lat="49.164819" lon="10.611609">
        <ele>423.026533</ele>
        <time>2026-05-05T12:02:25.026Z</time>
      </trkpt>
      <trkpt lat="49.164832" lon="10.611812">
        <ele>423.158542</ele>
        <time>2026-05-05T12:02:29.637Z</time>
      </trkpt>
      <trkpt lat="49.165030" lon="10.612601">
        <ele>423.705496</ele>
        <time>2026-05-05T12:02:48.704Z</time>
      </trkpt>
      <trkpt lat="49.165301" lon="10.613300">
        <ele>424.268513</ele>
        <time>2026-05-05T12:03:06.777Z</time>
      </trkpt>
      <trkpt lat="49.166195" lon="10.615202">
        <ele>426.063722</ele>
        <time>2026-05-05T12:03:57.955Z</time>
      </trkpt>
      <trkpt lat="49.166446" lon="10.615813">
        <ele>426.633557</ele>
        <time>2026-05-05T12:04:14.887Z</time>
      </trkpt>
      <trkpt lat="49.166630" lon="10.616450">
        <ele>427.186024</ele>
        <time>2026-05-05T12:04:31.558Z</time>
      </trkpt>
      <trkpt lat="49.166803" lon="10.617385">
        <ele>427.956913</ele>
        <time>2026-05-05T12:04:54.102Z</time>
      </trkpt>
      <trkpt lat="49.166777" lon="10.618481">
        <ele>428.001597</ele>
        <time>2026-05-05T12:05:15.430Z</time>
      </trkpt>
      <trkpt lat="49.166735" lon="10.618820">
        <ele>427.829239</ele>
        <time>2026-05-05T12:05:21.366Z</time>
      </trkpt>
      <trkpt lat="49.166677" lon="10.619211">
        <ele>427.628954</ele>
        <time>2026-05-05T12:05:27.929Z</time>
      </trkpt>
      <trkpt lat="49.166326" lon="10.620870">
        <ele>426.927316</ele>
        <time>2026-05-05T12:05:56.814Z</time>
      </trkpt>
      <trkpt lat="49.165861" lon="10.622300">
        <ele>426.846687</ele>
        <time>2026-05-05T12:06:28.234Z</time>
      </trkpt>
      <trkpt lat="49.165486" lon="10.623651">
        <ele>426.585230</ele>
        <time>2026-05-05T12:06:57.789Z</time>
      </trkpt>
      <trkpt lat="49.165342" lon="10.624348">
        <ele>426.350201</ele>
        <time>2026-05-05T12:07:10.696Z</time>
      </trkpt>
      <trkpt lat="49.165265" lon="10.624736">
        <ele>426.219827</ele>
        <time>2026-05-05T12:07:17.635Z</time>
      </trkpt>
      <trkpt lat="49.165208" lon="10.625423">
        <ele>425.997161</ele>
        <time>2026-05-05T12:07:29.413Z</time>
      </trkpt>
      <trkpt lat="49.165253" lon="10.626241">
        <ele>425.764227</ele>
        <time>2026-05-05T12:07:43.553Z</time>
      </trkpt>
      <trkpt lat="49.165361" lon="10.627195">
        <ele>425.503777</ele>
        <time>2026-05-05T12:08:01.444Z</time>
      </trkpt>
      <trkpt lat="49.165420" lon="10.629142">
        <ele>424.590267</ele>
        <time>2026-05-05T12:08:38.288Z</time>
      </trkpt>
      <trkpt lat="49.165423" lon="10.630180">
        <ele>423.777302</ele>
        <time>2026-05-05T12:08:55.528Z</time>
      </trkpt>
      <trkpt lat="49.165395" lon="10.630530">
        <ele>423.501140</ele>
        <time>2026-05-05T12:09:01.131Z</time>
      </trkpt>
      <trkpt lat="49.165307" lon="10.630890">
        <ele>423.200132</ele>
        <time>2026-05-05T12:09:07.121Z</time>
      </trkpt>
      <trkpt lat="49.165170" lon="10.631163">
        <ele>422.895414</ele>
        <time>2026-05-05T12:09:12.470Z</time>
      </trkpt>
      <trkpt lat="49.165086" lon="10.631499">
        <ele>422.512610</ele>
        <time>2026-05-05T12:09:18.095Z</time>
      </trkpt>
      <trkpt lat="49.165039" lon="10.632447">
        <ele>421.500880</ele>
        <time>2026-05-05T12:09:33.220Z</time>
      </trkpt>
      <trkpt lat="49.165038" lon="10.633777">
        <ele>420.092351</ele>
        <time>2026-05-05T12:09:55.362Z</time>
      </trkpt>
      <trkpt lat="49.164963" lon="10.634290">
        <ele>419.772209</ele>
        <time>2026-05-05T12:10:02.134Z</time>
      </trkpt>
      <trkpt lat="49.164887" lon="10.634532">
        <ele>419.608708</ele>
        <time>2026-05-05T12:10:05.567Z</time>
      </trkpt>
      <trkpt lat="49.164736" lon="10.634752">
        <ele>419.414461</ele>
        <time>2026-05-05T12:10:09.606Z</time>
      </trkpt>
      <trkpt lat="49.164517" lon="10.634904">
        <ele>419.190462</ele>
        <time>2026-05-05T12:10:14.281Z</time>
      </trkpt>
      <trkpt lat="49.164108" lon="10.635105">
        <ele>418.790336</ele>
        <time>2026-05-05T12:10:23.051Z</time>
      </trkpt>
      <trkpt lat="49.163784" lon="10.635379">
        <ele>418.445498</ele>
        <time>2026-05-05T12:10:31.283Z</time>
      </trkpt>
      <trkpt lat="49.163633" lon="10.635557">
        <ele>418.460582</ele>
        <time>2026-05-05T12:10:35.647Z</time>
      </trkpt>
      <trkpt lat="49.163580" lon="10.635620">
        <ele>418.474147</ele>
        <time>2026-05-05T12:10:37.197Z</time>
      </trkpt>
      <trkpt lat="49.163107" lon="10.636177">
        <ele>418.594788</ele>
        <time>2026-05-05T12:10:51.306Z</time>
      </trkpt>
      <trkpt lat="49.163056" lon="10.636237">
        <ele>418.607792</ele>
        <time>2026-05-05T12:10:52.915Z</time>
      </trkpt>
      <trkpt lat="49.162844" lon="10.636488">
        <ele>418.661973</ele>
        <time>2026-05-05T12:10:59.700Z</time>
      </trkpt>
      <trkpt lat="49.162730" lon="10.636620">
        <ele>418.690869</ele>
        <time>2026-05-05T12:11:03.410Z</time>
      </trkpt>
      <trkpt lat="49.162578" lon="10.636839">
        <ele>418.733072</ele>
        <time>2026-05-05T12:11:08.859Z</time>
      </trkpt>
      <trkpt lat="49.162527" lon="10.637021">
        <ele>418.759238</ele>
        <time>2026-05-05T12:11:12.143Z</time>
      </trkpt>
      <trkpt lat="49.162494" lon="10.637308">
        <ele>418.792367</ele>
        <time>2026-05-05T12:11:16.833Z</time>
      </trkpt>
      <trkpt lat="49.162469" lon="10.640117">
        <ele>418.866810</ele>
        <time>2026-05-05T12:11:59.684Z</time>
      </trkpt>
      <trkpt lat="49.162503" lon="10.640426">
        <ele>418.753925</ele>
        <time>2026-05-05T12:12:04.230Z</time>
      </trkpt>
      <trkpt lat="49.162615" lon="10.640855">
        <ele>418.587512</ele>
        <time>2026-05-05T12:12:10.692Z</time>
      </trkpt>
      <trkpt lat="49.162750" lon="10.641119">
        <ele>418.466776</ele>
        <time>2026-05-05T12:12:15.236Z</time>
      </trkpt>
      <trkpt lat="49.162879" lon="10.641370">
        <ele>418.351765</ele>
        <time>2026-05-05T12:12:19.544Z</time>
      </trkpt>
      <trkpt lat="49.163002" lon="10.641851">
        <ele>418.165703</ele>
        <time>2026-05-05T12:12:26.646Z</time>
      </trkpt>
      <trkpt lat="49.163103" lon="10.642709">
        <ele>417.876981</ele>
        <time>2026-05-05T12:12:38.572Z</time>
      </trkpt>
      <trkpt lat="49.163360" lon="10.643055">
        <ele>417.759383</ele>
        <time>2026-05-05T12:12:50.362Z</time>
      </trkpt>
      <trkpt lat="49.163716" lon="10.643321">
        <ele>417.623301</ele>
        <time>2026-05-05T12:13:04.445Z</time>
      </trkpt>
      <trkpt lat="49.163943" lon="10.643671">
        <ele>417.512591</ele>
        <time>2026-05-05T12:13:16.296Z</time>
      </trkpt>
      <trkpt lat="49.164364" lon="10.644872">
        <ele>417.248999</ele>
        <time>2026-05-05T12:13:49.123Z</time>
      </trkpt>
      <trkpt lat="49.164546" lon="10.645666">
        <ele>417.144787</ele>
        <time>2026-05-05T12:14:08.727Z</time>
      </trkpt>
      <trkpt lat="49.164584" lon="10.646052">
        <ele>417.096438</ele>
        <time>2026-05-05T12:14:17.746Z</time>
      </trkpt>
      <trkpt lat="49.164679" lon="10.646190">
        <ele>417.071620</ele>
        <time>2026-05-05T12:14:22.448Z</time>
      </trkpt>
      <trkpt lat="49.165370" lon="10.646768">
        <ele>417.005738</ele>
        <time>2026-05-05T12:14:51.394Z</time>
      </trkpt>
      <trkpt lat="49.165526" lon="10.646792">
        <ele>417.041043</ele>
        <time>2026-05-05T12:14:57.240Z</time>
      </trkpt>
      <trkpt lat="49.165609" lon="10.646898">
        <ele>417.065391</ele>
        <time>2026-05-05T12:15:01.323Z</time>
      </trkpt>
      <trkpt lat="49.165833" lon="10.647010">
        <ele>417.118458</ele>
        <time>2026-05-05T12:15:10.180Z</time>
      </trkpt>
      <trkpt lat="49.165943" lon="10.647217">
        <ele>417.157731</ele>
        <time>2026-05-05T12:15:16.817Z</time>
      </trkpt>
      <trkpt lat="49.166370" lon="10.647398">
        <ele>417.257505</ele>
        <time>2026-05-05T12:15:33.982Z</time>
      </trkpt>
      <trkpt lat="49.166544" lon="10.647556">
        <ele>417.303071</ele>
        <time>2026-05-05T12:15:41.908Z</time>
      </trkpt>
      <trkpt lat="49.166891" lon="10.647787">
        <ele>417.360860</ele>
        <time>2026-05-05T12:15:56.561Z</time>
      </trkpt>
      <trkpt lat="49.167356" lon="10.648009">
        <ele>417.338525</ele>
        <time>2026-05-05T12:16:15.029Z</time>
      </trkpt>
      <trkpt lat="49.167587" lon="10.648042">
        <ele>417.327887</ele>
        <time>2026-05-05T12:16:23.664Z</time>
      </trkpt>
      <trkpt lat="49.167721" lon="10.648147">
        <ele>417.320983</ele>
        <time>2026-05-05T12:16:29.181Z</time>
      </trkpt>
      <trkpt lat="49.167817" lon="10.648126">
        <ele>417.316537</ele>
        <time>2026-05-05T12:16:31.302Z</time>
      </trkpt>
      <trkpt lat="49.168341" lon="10.648213">
        <ele>417.292370</ele>
        <time>2026-05-05T12:16:42.562Z</time>
      </trkpt>
      <trkpt lat="49.169218" lon="10.648530">
        <ele>417.121651</ele>
        <time>2026-05-05T12:17:01.262Z</time>
      </trkpt>
      <trkpt lat="49.169605" lon="10.648847">
        <ele>417.020074</ele>
        <time>2026-05-05T12:17:10.466Z</time>
      </trkpt>
      <trkpt lat="49.169732" lon="10.648948">
        <ele>416.986954</ele>
        <time>2026-05-05T12:17:13.563Z</time>
      </trkpt>
      <trkpt lat="49.169880" lon="10.649016">
        <ele>416.951198</ele>
        <time>2026-05-05T12:17:16.939Z</time>
      </trkpt>
      <trkpt lat="49.170085" lon="10.649029">
        <ele>416.903724</ele>
        <time>2026-05-05T12:17:21.438Z</time>
      </trkpt>
      <trkpt lat="49.170165" lon="10.649067">
        <ele>416.884342</ele>
        <time>2026-05-05T12:17:23.323Z</time>
      </trkpt>
      <trkpt lat="49.170210" lon="10.649195">
        <ele>416.869185</ele>
        <time>2026-05-05T12:17:25.423Z</time>
      </trkpt>
      <trkpt lat="49.170214" lon="10.649779">
        <ele>416.914737</ele>
        <time>2026-05-05T12:17:34.103Z</time>
      </trkpt>
      <trkpt lat="49.170341" lon="10.651112">
        <ele>417.019804</ele>
        <time>2026-05-05T12:18:07.369Z</time>
      </trkpt>
      <trkpt lat="49.170390" lon="10.652145">
        <ele>417.096963</ele>
        <time>2026-05-05T12:18:32.796Z</time>
      </trkpt>
      <trkpt lat="49.170365" lon="10.652420">
        <ele>417.114522</ele>
        <time>2026-05-05T12:18:39.615Z</time>
      </trkpt>
      <trkpt lat="49.170226" lon="10.652705">
        <ele>417.137008</ele>
        <time>2026-05-05T12:18:48.372Z</time>
      </trkpt>
      <trkpt lat="49.169331" lon="10.655084">
        <ele>417.142615</ele>
        <time>2026-05-05T12:19:55.478Z</time>
      </trkpt>
      <trkpt lat="49.169152" lon="10.655389">
        <ele>417.089632</ele>
        <time>2026-05-05T12:20:05.108Z</time>
      </trkpt>
      <trkpt lat="49.168898" lon="10.655750">
        <ele>417.021075</ele>
        <time>2026-05-05T12:20:17.512Z</time>
      </trkpt>
      <trkpt lat="49.168675" lon="10.655979">
        <ele>416.967967</ele>
        <time>2026-05-05T12:20:27.126Z</time>
      </trkpt>
      <trkpt lat="49.168363" lon="10.656218">
        <ele>416.899227</ele>
        <time>2026-05-05T12:20:39.582Z</time>
      </trkpt>
      <trkpt lat="49.168195" lon="10.656346">
        <ele>416.873761</ele>
        <time>2026-05-05T12:20:46.278Z</time>
      </trkpt>
      <trkpt lat="49.167738" lon="10.656549">
        <ele>416.809190</ele>
        <time>2026-05-05T12:21:03.522Z</time>
      </trkpt>
      <trkpt lat="49.167237" lon="10.656717">
        <ele>416.739598</ele>
        <time>2026-05-05T12:21:22.679Z</time>
      </trkpt>
      <trkpt lat="49.166694" lon="10.656821">
        <ele>416.665346</ele>
        <time>2026-05-05T12:21:43.177Z</time>
      </trkpt>
      <trkpt lat="49.165770" lon="10.656881">
        <ele>416.292562</ele>
        <time>2026-05-05T12:22:15.876Z</time>
      </trkpt>
      <trkpt lat="49.165826" lon="10.657215">
        <ele>416.196683</ele>
        <time>2026-05-05T12:22:20.686Z</time>
      </trkpt>
      <trkpt lat="49.165998" lon="10.658126">
        <ele>415.933018</ele>
        <time>2026-05-05T12:22:33.360Z</time>
      </trkpt>
      <trkpt lat="49.166021" lon="10.658237">
        <ele>415.900640</ele>
        <time>2026-05-05T12:22:35.067Z</time>
      </trkpt>
      <trkpt lat="49.165923" lon="10.658276">
        <ele>415.875405</ele>
        <time>2026-05-05T12:22:37.034Z</time>
      </trkpt>
      <trkpt lat="49.165799" lon="10.658234">
        <ele>415.850338</ele>
        <time>2026-05-05T12:22:39.548Z</time>
      </trkpt>
      <trkpt lat="49.165707" lon="10.658239">
        <ele>415.832168</ele>
        <time>2026-05-05T12:22:41.465Z</time>
      </trkpt>
      <trkpt lat="49.164519" lon="10.658586">
        <ele>415.593451</ele>
        <time>2026-05-05T12:23:08.056Z</time>
      </trkpt>
      <trkpt lat="49.164072" lon="10.658623">
        <ele>415.521682</ele>
        <time>2026-05-05T12:23:17.784Z</time>
      </trkpt>
      <trkpt lat="49.163259" lon="10.658707">
        <ele>415.447610</ele>
        <time>2026-05-05T12:23:35.578Z</time>
      </trkpt>
      <trkpt lat="49.162858" lon="10.658849">
        <ele>415.410193</ele>
        <time>2026-05-05T12:23:44.548Z</time>
      </trkpt>
      <trkpt lat="49.162385" lon="10.659177">
        <ele>415.368071</ele>
        <time>2026-05-05T12:23:55.990Z</time>
      </trkpt>
      <trkpt lat="49.161860" lon="10.659593">
        <ele>415.343547</ele>
        <time>2026-05-05T12:24:09.026Z</time>
      </trkpt>
      <trkpt lat="49.161456" lon="10.659835">
        <ele>415.325552</ele>
        <time>2026-05-05T12:24:18.654Z</time>
      </trkpt>
      <trkpt lat="49.161103" lon="10.660029">
        <ele>415.309994</ele>
        <time>2026-05-05T12:24:26.989Z</time>
      </trkpt>
      <trkpt lat="49.160640" lon="10.660209">
        <ele>415.278917</ele>
        <time>2026-05-05T12:24:37.559Z</time>
      </trkpt>
      <trkpt lat="49.160147" lon="10.660333">
        <ele>415.227329</ele>
        <time>2026-05-05T12:24:48.487Z</time>
      </trkpt>
      <trkpt lat="49.158990" lon="10.660472">
        <ele>415.106967</ele>
        <time>2026-05-05T12:25:13.722Z</time>
      </trkpt>
      <trkpt lat="49.158338" lon="10.660750">
        <ele>415.028893</ele>
        <time>2026-05-05T12:25:28.284Z</time>
      </trkpt>
      <trkpt lat="49.157901" lon="10.661049">
        <ele>414.973671</ele>
        <time>2026-05-05T12:25:38.714Z</time>
      </trkpt>
      <trkpt lat="49.157404" lon="10.661514">
        <ele>414.906465</ele>
        <time>2026-05-05T12:25:51.652Z</time>
      </trkpt>
      <trkpt lat="49.157095" lon="10.661866">
        <ele>414.846283</ele>
        <time>2026-05-05T12:26:00.269Z</time>
      </trkpt>
      <trkpt lat="49.156782" lon="10.662296">
        <ele>414.779796</ele>
        <time>2026-05-05T12:26:09.551Z</time>
      </trkpt>
      <trkpt lat="49.156459" lon="10.662871">
        <ele>414.701467</ele>
        <time>2026-05-05T12:26:20.200Z</time>
      </trkpt>
      <trkpt lat="49.156211" lon="10.663473">
        <ele>414.627943</ele>
        <time>2026-05-05T12:26:29.956Z</time>
      </trkpt>
      <trkpt lat="49.155992" lon="10.664135">
        <ele>414.584914</ele>
        <time>2026-05-05T12:26:40.018Z</time>
      </trkpt>
      <trkpt lat="49.155499" lon="10.665846">
        <ele>414.485778</ele>
        <time>2026-05-05T12:27:06.714Z</time>
      </trkpt>
      <trkpt lat="49.155308" lon="10.666282">
        <ele>414.591472</ele>
        <time>2026-05-05T12:27:14.892Z</time>
      </trkpt>
      <trkpt lat="49.155014" lon="10.666856">
        <ele>414.864087</ele>
        <time>2026-05-05T12:27:26.741Z</time>
      </trkpt>
      <trkpt lat="49.154779" lon="10.667228">
        <ele>415.057477</ele>
        <time>2026-05-05T12:27:35.698Z</time>
      </trkpt>
      <trkpt lat="49.154372" lon="10.667741">
        <ele>415.359042</ele>
        <time>2026-05-05T12:27:49.126Z</time>
      </trkpt>
      <trkpt lat="49.154024" lon="10.668375">
        <ele>415.452786</ele>
        <time>2026-05-05T12:28:01.769Z</time>
      </trkpt>
      <trkpt lat="49.153838" lon="10.668844">
        <ele>415.390784</ele>
        <time>2026-05-05T12:28:09.653Z</time>
      </trkpt>
      <trkpt lat="49.153620" lon="10.669664">
        <ele>415.290723</ele>
        <time>2026-05-05T12:28:21.772Z</time>
      </trkpt>
      <trkpt lat="49.153307" lon="10.670763">
        <ele>415.167493</ele>
        <time>2026-05-05T12:28:37.649Z</time>
      </trkpt>
      <trkpt lat="49.152980" lon="10.671722">
        <ele>415.086039</ele>
        <time>2026-05-05T12:28:53.065Z</time>
      </trkpt>
      <trkpt lat="49.152569" lon="10.672633">
        <ele>415.002687</ele>
        <time>2026-05-05T12:29:09.431Z</time>
      </trkpt>
      <trkpt lat="49.152161" lon="10.673352">
        <ele>415.007228</ele>
        <time>2026-05-05T12:29:23.555Z</time>
      </trkpt>
      <trkpt lat="49.151562" lon="10.674263">
        <ele>415.047601</ele>
        <time>2026-05-05T12:29:42.552Z</time>
      </trkpt>
      <trkpt lat="49.151126" lon="10.675046">
        <ele>415.049065</ele>
        <time>2026-05-05T12:29:57.446Z</time>
      </trkpt>
      <trkpt lat="49.150836" lon="10.675845">
        <ele>414.979426</ele>
        <time>2026-05-05T12:30:10.498Z</time>
      </trkpt>
      <trkpt lat="49.150645" lon="10.676809">
        <ele>414.902661</ele>
        <time>2026-05-05T12:30:24.635Z</time>
      </trkpt>
      <trkpt lat="49.150547" lon="10.677669">
        <ele>414.873562</ele>
        <time>2026-05-05T12:30:37.140Z</time>
      </trkpt>
      <trkpt lat="49.150530" lon="10.678228">
        <ele>414.894480</ele>
        <time>2026-05-05T12:30:45.391Z</time>
      </trkpt>
      <trkpt lat="49.149980" lon="10.679614">
        <ele>414.955078</ele>
        <time>2026-05-05T12:31:09.317Z</time>
      </trkpt>
      <trkpt lat="49.149535" lon="10.680441">
        <ele>415.021183</ele>
        <time>2026-05-05T12:31:25.471Z</time>
      </trkpt>
      <trkpt lat="49.149298" lon="10.680762">
        <ele>415.054463</ele>
        <time>2026-05-05T12:31:32.681Z</time>
      </trkpt>
      <trkpt lat="49.149026" lon="10.681063">
        <ele>415.089756</ele>
        <time>2026-05-05T12:31:40.212Z</time>
      </trkpt>
      <trkpt lat="49.148711" lon="10.681344">
        <ele>415.128089</ele>
        <time>2026-05-05T12:31:48.355Z</time>
      </trkpt>
      <trkpt lat="49.148382" lon="10.681585">
        <ele>415.156361</ele>
        <time>2026-05-05T12:31:56.558Z</time>
      </trkpt>
      <trkpt lat="49.148103" lon="10.681744">
        <ele>415.164038</ele>
        <time>2026-05-05T12:32:03.325Z</time>
      </trkpt>
      <trkpt lat="49.147609" lon="10.681951">
        <ele>415.177243</ele>
        <time>2026-05-05T12:32:14.749Z</time>
      </trkpt>
      <trkpt lat="49.147202" lon="10.682179">
        <ele>415.188417</ele>
        <time>2026-05-05T12:32:24.274Z</time>
      </trkpt>
      <trkpt lat="49.146878" lon="10.682526">
        <ele>415.198616</ele>
        <time>2026-05-05T12:32:32.950Z</time>
      </trkpt>
      <trkpt lat="49.146609" lon="10.682951">
        <ele>415.185623</ele>
        <time>2026-05-05T12:32:41.557Z</time>
      </trkpt>
      <trkpt lat="49.146369" lon="10.683479">
        <ele>415.169198</ele>
        <time>2026-05-05T12:32:50.927Z</time>
      </trkpt>
      <trkpt lat="49.146086" lon="10.684599">
        <ele>415.138524</ele>
        <time>2026-05-05T12:33:08.276Z</time>
      </trkpt>
      <trkpt lat="49.145883" lon="10.685097">
        <ele>415.138594</ele>
        <time>2026-05-05T12:33:16.796Z</time>
      </trkpt>
      <trkpt lat="49.145661" lon="10.685500">
        <ele>415.160841</ele>
        <time>2026-05-05T12:33:24.515Z</time>
      </trkpt>
      <trkpt lat="49.145424" lon="10.685838">
        <ele>415.181763</ele>
        <time>2026-05-05T12:33:31.802Z</time>
      </trkpt>
      <trkpt lat="49.145098" lon="10.686190">
        <ele>415.207526</ele>
        <time>2026-05-05T12:33:40.814Z</time>
      </trkpt>
      <trkpt lat="49.144704" lon="10.686542">
        <ele>415.236983</ele>
        <time>2026-05-05T12:33:51.130Z</time>
      </trkpt>
      <trkpt lat="49.144351" lon="10.686909">
        <ele>415.259572</ele>
        <time>2026-05-05T12:34:00.796Z</time>
      </trkpt>
      <trkpt lat="49.143886" lon="10.687578">
        <ele>415.290140</ele>
        <time>2026-05-05T12:34:15.131Z</time>
      </trkpt>
      <trkpt lat="49.143544" lon="10.688202">
        <ele>415.315633</ele>
        <time>2026-05-05T12:34:27.024Z</time>
      </trkpt>
      <trkpt lat="49.143234" lon="10.688992">
        <ele>415.282819</ele>
        <time>2026-05-05T12:34:40.548Z</time>
      </trkpt>
      <trkpt lat="49.143019" lon="10.689728">
        <ele>415.188931</ele>
        <time>2026-05-05T12:34:52.155Z</time>
      </trkpt>
      <trkpt lat="49.142940" lon="10.690187">
        <ele>415.133647</ele>
        <time>2026-05-05T12:34:58.808Z</time>
      </trkpt>
      <trkpt lat="49.142884" lon="10.690415">
        <ele>415.105279</ele>
        <time>2026-05-05T12:35:02.189Z</time>
      </trkpt>
      <trkpt lat="49.142593" lon="10.691720">
        <ele>414.931265</ele>
        <time>2026-05-05T12:35:21.015Z</time>
      </trkpt>
      <trkpt lat="49.142469" lon="10.692186">
        <ele>414.860838</ele>
        <time>2026-05-05T12:35:27.842Z</time>
      </trkpt>
      <trkpt lat="49.142178" lon="10.692936">
        <ele>414.738763</ele>
        <time>2026-05-05T12:35:39.956Z</time>
      </trkpt>
      <trkpt lat="49.142038" lon="10.693434">
        <ele>414.662880</ele>
        <time>2026-05-05T12:35:47.824Z</time>
      </trkpt>
      <trkpt lat="49.141948" lon="10.693883">
        <ele>414.627007</ele>
        <time>2026-05-05T12:35:54.783Z</time>
      </trkpt>
      <trkpt lat="49.141792" lon="10.695134">
        <ele>414.631665</ele>
        <time>2026-05-05T12:36:13.689Z</time>
      </trkpt>
      <trkpt lat="49.141655" lon="10.695738">
        <ele>414.634003</ele>
        <time>2026-05-05T12:36:22.926Z</time>
      </trkpt>
      <trkpt lat="49.141486" lon="10.696181">
        <ele>414.635879</ele>
        <time>2026-05-05T12:36:30.264Z</time>
      </trkpt>
      <trkpt lat="49.141151" lon="10.696923">
        <ele>414.644227</ele>
        <time>2026-05-05T12:36:43.081Z</time>
      </trkpt>
      <trkpt lat="49.141100" lon="10.697128">
        <ele>414.646440</ele>
        <time>2026-05-05T12:36:46.289Z</time>
      </trkpt>
      <trkpt lat="49.141042" lon="10.697489">
        <ele>414.650189</ele>
        <time>2026-05-05T12:36:51.810Z</time>
      </trkpt>
      <trkpt lat="49.141052" lon="10.697853">
        <ele>414.653864</ele>
        <time>2026-05-05T12:36:57.251Z</time>
      </trkpt>
      <trkpt lat="49.141070" lon="10.698015">
        <ele>414.655521</ele>
        <time>2026-05-05T12:36:59.729Z</time>
      </trkpt>
      <trkpt lat="49.141192" lon="10.698365">
        <ele>414.659521</ele>
        <time>2026-05-05T12:37:05.652Z</time>
      </trkpt>
      <trkpt lat="49.141415" lon="10.698722">
        <ele>414.660427</ele>
        <time>2026-05-05T12:37:12.994Z</time>
      </trkpt>
      <trkpt lat="49.141720" lon="10.698935">
        <ele>414.620377</ele>
        <time>2026-05-05T12:37:20.513Z</time>
      </trkpt>
      <trkpt lat="49.142536" lon="10.699223">
        <ele>414.520353</ele>
        <time>2026-05-05T12:37:38.662Z</time>
      </trkpt>
      <trkpt lat="49.142802" lon="10.699412">
        <ele>414.485319</ele>
        <time>2026-05-05T12:37:44.782Z</time>
      </trkpt>
      <trkpt lat="49.143043" lon="10.699690">
        <ele>414.449259</ele>
        <time>2026-05-05T12:37:51.098Z</time>
      </trkpt>
      <trkpt lat="49.143785" lon="10.700929">
        <ele>414.434725</ele>
        <time>2026-05-05T12:38:15.049Z</time>
      </trkpt>
      <trkpt lat="49.144006" lon="10.701173">
        <ele>414.431131</ele>
        <time>2026-05-05T12:38:21.308Z</time>
      </trkpt>
      <trkpt lat="49.144251" lon="10.701356">
        <ele>414.427535</ele>
        <time>2026-05-05T12:38:27.657Z</time>
      </trkpt>
      <trkpt lat="49.145283" lon="10.701726">
        <ele>414.513310</ele>
        <time>2026-05-05T12:38:51.977Z</time>
      </trkpt>
      <trkpt lat="49.145541" lon="10.701827">
        <ele>414.539150</ele>
        <time>2026-05-05T12:38:58.007Z</time>
      </trkpt>
      <trkpt lat="49.145778" lon="10.701983">
        <ele>414.564186</ele>
        <time>2026-05-05T12:39:03.796Z</time>
      </trkpt>
      <trkpt lat="49.145997" lon="10.702195">
        <ele>414.589336</ele>
        <time>2026-05-05T12:39:09.570Z</time>
      </trkpt>
      <trkpt lat="49.146300" lon="10.702615">
        <ele>414.587415</ele>
        <time>2026-05-05T12:39:18.624Z</time>
      </trkpt>
      <trkpt lat="49.146942" lon="10.703704">
        <ele>414.547046</ele>
        <time>2026-05-05T12:39:39.877Z</time>
      </trkpt>
      <trkpt lat="49.147124" lon="10.703919">
        <ele>414.537363</ele>
        <time>2026-05-05T12:39:44.964Z</time>
      </trkpt>
      <trkpt lat="49.147321" lon="10.704053">
        <ele>414.528286</ele>
        <time>2026-05-05T12:39:49.701Z</time>
      </trkpt>
      <trkpt lat="49.147526" lon="10.704110">
        <ele>414.517529</ele>
        <time>2026-05-05T12:39:54.255Z</time>
      </trkpt>
      <trkpt lat="49.148183" lon="10.704049">
        <ele>414.478291</ele>
        <time>2026-05-05T12:40:08.470Z</time>
      </trkpt>
      <trkpt lat="49.148725" lon="10.704167">
        <ele>414.445654</ele>
        <time>2026-05-05T12:40:20.310Z</time>
      </trkpt>
      <trkpt lat="49.148835" lon="10.704144">
        <ele>414.439035</ele>
        <time>2026-05-05T12:40:22.793Z</time>
      </trkpt>
      <trkpt lat="49.149051" lon="10.703958">
        <ele>414.424256</ele>
        <time>2026-05-05T12:40:28.426Z</time>
      </trkpt>
      <trkpt lat="49.149264" lon="10.703604">
        <ele>414.463574</ele>
        <time>2026-05-05T12:40:35.663Z</time>
      </trkpt>
      <trkpt lat="49.149343" lon="10.703690">
        <ele>414.486833</ele>
        <time>2026-05-05T12:40:37.906Z</time>
      </trkpt>
      <trkpt lat="49.149425" lon="10.703786">
        <ele>414.511603</ele>
        <time>2026-05-05T12:40:40.315Z</time>
      </trkpt>
      <trkpt lat="49.149499" lon="10.703866">
        <ele>414.533339</ele>
        <time>2026-05-05T12:40:42.410Z</time>
      </trkpt>
      <trkpt lat="49.149352" lon="10.704337">
        <ele>414.615206</ele>
        <time>2026-05-05T12:40:50.355Z</time>
      </trkpt>
      <trkpt lat="49.149305" lon="10.704602">
        <ele>414.658278</ele>
        <time>2026-05-05T12:40:54.546Z</time>
      </trkpt>
      <trkpt lat="49.149094" lon="10.705702">
        <ele>414.838103</ele>
        <time>2026-05-05T12:41:12.146Z</time>
      </trkpt>
      <trkpt lat="49.148682" lon="10.706842">
        <ele>414.883430</ele>
        <time>2026-05-05T12:41:31.529Z</time>
      </trkpt>
      <trkpt lat="49.148546" lon="10.707303">
        <ele>414.897743</ele>
        <time>2026-05-05T12:41:38.898Z</time>
      </trkpt>
      <trkpt lat="49.148450" lon="10.707758">
        <ele>414.911274</ele>
        <time>2026-05-05T12:41:45.792Z</time>
      </trkpt>
      <trkpt lat="49.148362" lon="10.708341">
        <ele>414.920194</ele>
        <time>2026-05-05T12:42:12.949Z</time>
      </trkpt>
      <trkpt lat="49.148173" lon="10.708233">
        <ele>414.893053</ele>
        <time>2026-05-05T12:42:17.783Z</time>
      </trkpt>
      <trkpt lat="49.147453" lon="10.707817">
        <ele>414.789517</ele>
        <time>2026-05-05T12:42:45.894Z</time>
      </trkpt>
      <trkpt lat="49.147181" lon="10.707461">
        <ele>414.741352</ele>
        <time>2026-05-05T12:42:58.860Z</time>
      </trkpt>
      <trkpt lat="49.147123" lon="10.707362">
        <ele>414.729658</ele>
        <time>2026-05-05T12:43:00.984Z</time>
      </trkpt>
      <trkpt lat="49.147356" lon="10.706787">
        <ele>414.668941</ele>
        <time>2026-05-05T12:43:11.782Z</time>
      </trkpt>
      <trkpt lat="49.147532" lon="10.706133">
        <ele>414.601437</ele>
        <time>2026-05-05T12:43:22.981Z</time>
      </trkpt>
      <trkpt lat="49.147557" lon="10.705732">
        <ele>414.562986</ele>
        <time>2026-05-05T12:43:32.607Z</time>
      </trkpt>
      <trkpt lat="49.147564" lon="10.705590">
        <ele>414.549394</ele>
        <time>2026-05-05T12:43:34.845Z</time>
      </trkpt>
      <trkpt lat="49.147544" lon="10.705532">
        <ele>414.543135</ele>
        <time>2026-05-05T12:43:35.874Z</time>
      </trkpt>
      <trkpt lat="49.147464" lon="10.705477">
        <ele>414.530335</ele>
        <time>2026-05-05T12:43:37.971Z</time>
      </trkpt>
      <trkpt lat="49.147194" lon="10.705436">
        <ele>414.490740</ele>
        <time>2026-05-05T12:43:44.442Z</time>
      </trkpt>
      <trkpt lat="49.147142" lon="10.705408">
        <ele>414.482695</ele>
        <time>2026-05-05T12:43:45.759Z</time>
      </trkpt>
      <trkpt lat="49.147123" lon="10.705398">
        <ele>414.479762</ele>
        <time>2026-05-05T12:43:46.238Z</time>
      </trkpt>
      <trkpt lat="49.146853" lon="10.705080">
        <ele>414.430025</ele>
        <time>2026-05-05T12:43:54.520Z</time>
      </trkpt>
      <trkpt lat="49.146788" lon="10.705040">
        <ele>414.422824</ele>
        <time>2026-05-05T12:43:56.249Z</time>
      </trkpt>
      <trkpt lat="49.146622" lon="10.705015">
        <ele>414.434563</ele>
        <time>2026-05-05T12:44:00.322Z</time>
      </trkpt>
      <trkpt lat="49.146552" lon="10.704921">
        <ele>414.441120</ele>
        <time>2026-05-05T12:44:02.584Z</time>
      </trkpt>
      <trkpt lat="49.146442" lon="10.704592">
        <ele>414.458130</ele>
        <time>2026-05-05T12:44:08.573Z</time>
      </trkpt>
      <trkpt lat="49.146370" lon="10.704461">
        <ele>414.466006</ele>
        <time>2026-05-05T12:44:11.408Z</time>
      </trkpt>
      <trkpt lat="49.145998" lon="10.704362">
        <ele>414.492580</ele>
        <time>2026-05-05T12:44:21.013Z</time>
      </trkpt>
      <trkpt lat="49.145881" lon="10.704275">
        <ele>414.501737</ele>
        <time>2026-05-05T12:44:24.321Z</time>
      </trkpt>
      <trkpt lat="49.145721" lon="10.704056">
        <ele>414.516851</ele>
        <time>2026-05-05T12:44:29.762Z</time>
      </trkpt>
      <trkpt lat="49.145633" lon="10.704043">
        <ele>414.523073</ele>
        <time>2026-05-05T12:44:32.005Z</time>
      </trkpt>
      <trkpt lat="49.145562" lon="10.704105">
        <ele>414.528827</ele>
        <time>2026-05-05T12:44:34.090Z</time>
      </trkpt>
      <trkpt lat="49.145409" lon="10.704358">
        <ele>414.544689</ele>
        <time>2026-05-05T12:44:42.646Z</time>
      </trkpt>
      <trkpt lat="49.145326" lon="10.704558">
        <ele>414.548233</ele>
        <time>2026-05-05T12:44:46.584Z</time>
      </trkpt>
      <trkpt lat="49.145294" lon="10.704801">
        <ele>414.547931</ele>
        <time>2026-05-05T12:44:50.614Z</time>
      </trkpt>
      <trkpt lat="49.145209" lon="10.705159">
        <ele>414.547467</ele>
        <time>2026-05-05T12:44:56.623Z</time>
      </trkpt>
      <trkpt lat="49.145205" lon="10.705179">
        <ele>414.547442</ele>
        <time>2026-05-05T12:44:56.954Z</time>
      </trkpt>
      <trkpt lat="49.145210" lon="10.705246">
        <ele>414.547360</ele>
        <time>2026-05-05T12:44:58.002Z</time>
      </trkpt>
      <trkpt lat="49.145241" lon="10.705699">
        <ele>414.546805</ele>
        <time>2026-05-05T12:45:08.933Z</time>
      </trkpt>
      <trkpt lat="49.145254" lon="10.705778">
        <ele>414.546706</ele>
        <time>2026-05-05T12:45:10.219Z</time>
      </trkpt>
      <trkpt lat="49.145354" lon="10.705975">
        <ele>414.546402</ele>
        <time>2026-05-05T12:45:14.177Z</time>
      </trkpt>
      <trkpt lat="49.145583" lon="10.706282">
        <ele>414.545835</ele>
        <time>2026-05-05T12:45:21.581Z</time>
      </trkpt>
      <trkpt lat="49.145775" lon="10.706486">
        <ele>414.545400</ele>
        <time>2026-05-05T12:45:27.489Z</time>
      </trkpt>
      <trkpt lat="49.146254" lon="10.706823">
        <ele>414.598137</ele>
        <time>2026-05-05T12:45:40.863Z</time>
      </trkpt>
      <trkpt lat="49.146453" lon="10.706837">
        <ele>414.628137</ele>
        <time>2026-05-05T12:45:45.698Z</time>
      </trkpt>
      <trkpt lat="49.146550" lon="10.706907">
        <ele>414.644290</ele>
        <time>2026-05-05T12:45:48.367Z</time>
      </trkpt>
      <trkpt lat="49.146722" lon="10.707322">
        <ele>414.692686</ele>
        <time>2026-05-05T12:45:56.502Z</time>
      </trkpt>
      <trkpt lat="49.146737" lon="10.707422">
        <ele>414.702792</ele>
        <time>2026-05-05T12:45:58.239Z</time>
      </trkpt>
      <trkpt lat="49.146880" lon="10.707465">
        <ele>414.724740</ele>
        <time>2026-05-05T12:46:01.968Z</time>
      </trkpt>
      <trkpt lat="49.147123" lon="10.707362">
        <ele>414.762715</ele>
        <time>2026-05-05T12:46:08.399Z</time>
      </trkpt>
      <trkpt lat="49.147181" lon="10.707461">
        <ele>414.775807</ele>
        <time>2026-05-05T12:46:10.629Z</time>
      </trkpt>
      <trkpt lat="49.147453" lon="10.707817">
        <ele>414.829399</ele>
        <time>2026-05-05T12:46:24.271Z</time>
      </trkpt>
      <trkpt lat="49.148031" lon="10.708151">
        <ele>414.920222</ele>
        <time>2026-05-05T12:46:47.306Z</time>
      </trkpt>
      <trkpt lat="49.148173" lon="10.708233">
        <ele>414.942533</ele>
        <time>2026-05-05T12:46:53.130Z</time>
      </trkpt>
      <trkpt lat="49.148362" lon="10.708341">
        <ele>414.972190</ele>
        <time>2026-05-05T12:46:58.395Z</time>
      </trkpt>
      <trkpt lat="49.148450" lon="10.707758">
        <ele>415.029714</ele>
        <time>2026-05-05T12:47:25.551Z</time>
      </trkpt>
      <trkpt lat="49.148466" lon="10.707917">
        <ele>415.045180</ele>
        <time>2026-05-05T12:47:27.972Z</time>
      </trkpt>
      <trkpt lat="49.148382" lon="10.708664">
        <ele>415.089618</ele>
        <time>2026-05-05T12:47:39.131Z</time>
      </trkpt>
      <trkpt lat="49.148352" lon="10.709252">
        <ele>415.103601</ele>
        <time>2026-05-05T12:47:47.662Z</time>
      </trkpt>
      <trkpt lat="49.148353" lon="10.709956">
        <ele>415.120291</ele>
        <time>2026-05-05T12:47:58.028Z</time>
      </trkpt>
      <trkpt lat="49.148381" lon="10.710234">
        <ele>415.126960</ele>
        <time>2026-05-05T12:48:02.116Z</time>
      </trkpt>
      <trkpt lat="49.148378" lon="10.710533">
        <ele>415.134049</ele>
        <time>2026-05-05T12:48:06.451Z</time>
      </trkpt>
      <trkpt lat="49.148212" lon="10.711384">
        <ele>415.112003</ele>
        <time>2026-05-05T12:48:19.207Z</time>
      </trkpt>
      <trkpt lat="49.147972" lon="10.712123">
        <ele>415.043737</ele>
        <time>2026-05-05T12:48:31.014Z</time>
      </trkpt>
      <trkpt lat="49.147480" lon="10.713219">
        <ele>414.933753</ele>
        <time>2026-05-05T12:48:49.889Z</time>
      </trkpt>
      <trkpt lat="49.146642" lon="10.714989">
        <ele>414.724741</ele>
        <time>2026-05-05T12:49:21.211Z</time>
      </trkpt>
      <trkpt lat="49.146281" lon="10.716183">
        <ele>414.556064</ele>
        <time>2026-05-05T12:49:39.381Z</time>
      </trkpt>
      <trkpt lat="49.145902" lon="10.717099">
        <ele>414.371272</ele>
        <time>2026-05-05T12:49:54.088Z</time>
      </trkpt>
      <trkpt lat="49.145810" lon="10.717515">
        <ele>414.296402</ele>
        <time>2026-05-05T12:50:00.196Z</time>
      </trkpt>
      <trkpt lat="49.145788" lon="10.717808">
        <ele>414.246119</ele>
        <time>2026-05-05T12:50:04.375Z</time>
      </trkpt>
      <trkpt lat="49.145791" lon="10.718356">
        <ele>414.203670</ele>
        <time>2026-05-05T12:50:12.331Z</time>
      </trkpt>
      <trkpt lat="49.145592" lon="10.719430">
        <ele>414.335972</ele>
        <time>2026-05-05T12:50:29.029Z</time>
      </trkpt>
      <trkpt lat="49.145518" lon="10.720038">
        <ele>414.409272</ele>
        <time>2026-05-05T12:50:38.511Z</time>
      </trkpt>
      <trkpt lat="49.145543" lon="10.720747">
        <ele>414.493428</ele>
        <time>2026-05-05T12:50:49.432Z</time>
      </trkpt>
      <trkpt lat="49.145620" lon="10.721500">
        <ele>414.604889</ele>
        <time>2026-05-05T12:51:00.907Z</time>
      </trkpt>
      <trkpt lat="49.145615" lon="10.721638">
        <ele>414.625879</ele>
        <time>2026-05-05T12:51:02.956Z</time>
      </trkpt>
      <trkpt lat="49.145578" lon="10.721757">
        <ele>414.645889</ele>
        <time>2026-05-05T12:51:04.900Z</time>
      </trkpt>
      <trkpt lat="49.145341" lon="10.722046">
        <ele>414.716273</ele>
        <time>2026-05-05T12:51:11.813Z</time>
      </trkpt>
      <trkpt lat="49.145241" lon="10.722209">
        <ele>414.750212</ele>
        <time>2026-05-05T12:51:15.186Z</time>
      </trkpt>
      <trkpt lat="49.145101" lon="10.722643">
        <ele>414.823702</ele>
        <time>2026-05-05T12:51:22.650Z</time>
      </trkpt>
      <trkpt lat="49.145014" lon="10.723091">
        <ele>414.894675</ele>
        <time>2026-05-05T12:51:29.862Z</time>
      </trkpt>
      <trkpt lat="49.144973" lon="10.723614">
        <ele>414.946593</ele>
        <time>2026-05-05T12:51:37.958Z</time>
      </trkpt>
      <trkpt lat="49.144860" lon="10.724262">
        <ele>414.989388</ele>
        <time>2026-05-05T12:51:48.090Z</time>
      </trkpt>
      <trkpt lat="49.144413" lon="10.725025">
        <ele>415.054750</ele>
        <time>2026-05-05T12:52:03.365Z</time>
      </trkpt>
      <trkpt lat="49.144099" lon="10.725404">
        <ele>415.093779</ele>
        <time>2026-05-05T12:52:12.120Z</time>
      </trkpt>
      <trkpt lat="49.144048" lon="10.725517">
        <ele>415.100512</ele>
        <time>2026-05-05T12:52:14.034Z</time>
      </trkpt>
      <trkpt lat="49.144048" lon="10.725732">
        <ele>415.080864</ele>
        <time>2026-05-05T12:52:17.010Z</time>
      </trkpt>
      <trkpt lat="49.144047" lon="10.726087">
        <ele>415.048420</ele>
        <time>2026-05-05T12:52:21.913Z</time>
      </trkpt>
      <trkpt lat="49.143982" lon="10.726328">
        <ele>415.024597</ele>
        <time>2026-05-05T12:52:25.508Z</time>
      </trkpt>
      <trkpt lat="49.143818" lon="10.726764">
        <ele>414.978634</ele>
        <time>2026-05-05T12:52:32.508Z</time>
      </trkpt>
      <trkpt lat="49.143565" lon="10.727405">
        <ele>414.910216</ele>
        <time>2026-05-05T12:52:43.196Z</time>
      </trkpt>
      <trkpt lat="49.143495" lon="10.727701">
        <ele>414.881452</ele>
        <time>2026-05-05T12:52:47.740Z</time>
      </trkpt>
      <trkpt lat="49.142983" lon="10.728800">
        <ele>414.854541</ele>
        <time>2026-05-05T12:53:07.473Z</time>
      </trkpt>
      <trkpt lat="49.142818" lon="10.729103">
        <ele>414.856147</ele>
        <time>2026-05-05T12:53:13.294Z</time>
      </trkpt>
      <trkpt lat="49.142629" lon="10.729450">
        <ele>414.857986</ele>
        <time>2026-05-05T12:53:19.916Z</time>
      </trkpt>
      <trkpt lat="49.142529" lon="10.729737">
        <ele>414.859311</ele>
        <time>2026-05-05T12:53:24.642Z</time>
      </trkpt>
      <trkpt lat="49.142336" lon="10.729938">
        <ele>414.860765</ele>
        <time>2026-05-05T12:53:29.801Z</time>
      </trkpt>
      <trkpt lat="49.141839" lon="10.730681">
        <ele>414.858576</ele>
        <time>2026-05-05T12:53:45.066Z</time>
      </trkpt>
      <trkpt lat="49.141729" lon="10.730891">
        <ele>414.857611</ele>
        <time>2026-05-05T12:53:48.943Z</time>
      </trkpt>
      <trkpt lat="49.141441" lon="10.731092">
        <ele>414.855876</ele>
        <time>2026-05-05T12:53:55.948Z</time>
      </trkpt>
      <trkpt lat="49.141002" lon="10.731588">
        <ele>414.852883</ele>
        <time>2026-05-05T12:54:08.163Z</time>
      </trkpt>
      <trkpt lat="49.140748" lon="10.731942">
        <ele>414.852561</ele>
        <time>2026-05-05T12:54:15.912Z</time>
      </trkpt>
      <trkpt lat="49.140185" lon="10.732489">
        <ele>414.856339</ele>
        <time>2026-05-05T12:54:30.920Z</time>
      </trkpt>
      <trkpt lat="49.139513" lon="10.732988">
        <ele>414.860570</ele>
        <time>2026-05-05T12:54:47.567Z</time>
      </trkpt>
      <trkpt lat="49.138669" lon="10.733541">
        <ele>414.780778</ele>
        <time>2026-05-05T12:55:07.638Z</time>
      </trkpt>
      <trkpt lat="49.138244" lon="10.733731">
        <ele>414.727449</ele>
        <time>2026-05-05T12:55:17.226Z</time>
      </trkpt>
      <trkpt lat="49.136961" lon="10.734117">
        <ele>414.595497</ele>
        <time>2026-05-05T12:55:45.391Z</time>
      </trkpt>
      <trkpt lat="49.136505" lon="10.734018">
        <ele>414.558818</ele>
        <time>2026-05-05T12:55:55.549Z</time>
      </trkpt>
      <trkpt lat="49.136157" lon="10.733897">
        <ele>414.530396</ele>
        <time>2026-05-05T12:56:03.490Z</time>
      </trkpt>
      <trkpt lat="49.135731" lon="10.733618">
        <ele>414.509432</ele>
        <time>2026-05-05T12:56:13.864Z</time>
      </trkpt>
      <trkpt lat="49.135380" lon="10.733211">
        <ele>414.539338</ele>
        <time>2026-05-05T12:56:23.762Z</time>
      </trkpt>
      <trkpt lat="49.135280" lon="10.732996">
        <ele>414.551053</ele>
        <time>2026-05-05T12:56:27.628Z</time>
      </trkpt>
      <trkpt lat="49.134950" lon="10.732594">
        <ele>414.579697</ele>
        <time>2026-05-05T12:56:37.095Z</time>
      </trkpt>
      <trkpt lat="49.134320" lon="10.732159">
        <ele>414.628354</ele>
        <time>2026-05-05T12:56:52.607Z</time>
      </trkpt>
      <trkpt lat="49.134039" lon="10.732133">
        <ele>414.661035</ele>
        <time>2026-05-05T12:56:58.991Z</time>
      </trkpt>
      <trkpt lat="49.133871" lon="10.732020">
        <ele>414.682343</ele>
        <time>2026-05-05T12:57:03.195Z</time>
      </trkpt>
      <trkpt lat="49.133588" lon="10.731990">
        <ele>414.715274</ele>
        <time>2026-05-05T12:57:09.698Z</time>
      </trkpt>
      <trkpt lat="49.133158" lon="10.732022">
        <ele>414.765251</ele>
        <time>2026-05-05T12:57:19.571Z</time>
      </trkpt>
      <trkpt lat="49.132811" lon="10.732122">
        <ele>414.806244</ele>
        <time>2026-05-05T12:57:27.634Z</time>
      </trkpt>
      <trkpt lat="49.132684" lon="10.732111">
        <ele>414.821011</ele>
        <time>2026-05-05T12:57:30.505Z</time>
      </trkpt>
      <trkpt lat="49.132150" lon="10.732483">
        <ele>414.863672</ele>
        <time>2026-05-05T12:57:47.705Z</time>
      </trkpt>
      <trkpt lat="49.131825" lon="10.732817">
        <ele>414.888518</ele>
        <time>2026-05-05T12:57:59.171Z</time>
      </trkpt>
      <trkpt lat="49.131565" lon="10.733178">
        <ele>414.910803</ele>
        <time>2026-05-05T12:58:09.633Z</time>
      </trkpt>
      <trkpt lat="49.131404" lon="10.733468">
        <ele>414.926591</ele>
        <time>2026-05-05T12:58:17.099Z</time>
      </trkpt>
      <trkpt lat="49.130946" lon="10.734577">
        <ele>414.971669</ele>
        <time>2026-05-05T12:58:42.587Z</time>
      </trkpt>
      <trkpt lat="49.130900" lon="10.734689">
        <ele>414.975644</ele>
        <time>2026-05-05T12:58:45.151Z</time>
      </trkpt>
      <trkpt lat="49.130490" lon="10.735597">
        <ele>415.008810</ele>
        <time>2026-05-05T12:59:06.407Z</time>
      </trkpt>
      <trkpt lat="49.130443" lon="10.735745">
        <ele>415.013755</ele>
        <time>2026-05-05T12:59:08.767Z</time>
      </trkpt>
      <trkpt lat="49.130285" lon="10.736019">
        <ele>415.024735</ele>
        <time>2026-05-05T12:59:13.958Z</time>
      </trkpt>
      <trkpt lat="49.130058" lon="10.736334">
        <ele>415.034356</ele>
        <time>2026-05-05T12:59:20.557Z</time>
      </trkpt>
      <trkpt lat="49.129790" lon="10.736641">
        <ele>415.042186</ele>
        <time>2026-05-05T12:59:27.916Z</time>
      </trkpt>
      <trkpt lat="49.129088" lon="10.737352">
        <ele>415.061876</ele>
        <time>2026-05-05T12:59:46.949Z</time>
      </trkpt>
      <trkpt lat="49.128882" lon="10.737670">
        <ele>415.068722</ele>
        <time>2026-05-05T12:59:53.576Z</time>
      </trkpt>
      <trkpt lat="49.128554" lon="10.738057">
        <ele>415.137625</ele>
        <time>2026-05-05T13:00:02.939Z</time>
      </trkpt>
      <trkpt lat="49.128293" lon="10.738227">
        <ele>415.203502</ele>
        <time>2026-05-05T13:00:09.385Z</time>
      </trkpt>
      <trkpt lat="49.127821" lon="10.738374">
        <ele>415.315350</ele>
        <time>2026-05-05T13:00:20.492Z</time>
      </trkpt>
      <trkpt lat="49.127353" lon="10.738368">
        <ele>415.424019</ele>
        <time>2026-05-05T13:00:31.509Z</time>
      </trkpt>
      <trkpt lat="49.126908" lon="10.738282">
        <ele>415.468069</ele>
        <time>2026-05-05T13:00:42.212Z</time>
      </trkpt>
      <trkpt lat="49.126564" lon="10.738178">
        <ele>415.423234</ele>
        <time>2026-05-05T13:00:50.513Z</time>
      </trkpt>
      <trkpt lat="49.126453" lon="10.738156">
        <ele>415.408923</ele>
        <time>2026-05-05T13:00:53.058Z</time>
      </trkpt>
      <trkpt lat="49.125946" lon="10.738190">
        <ele>415.344038</ele>
        <time>2026-05-05T13:01:03.971Z</time>
      </trkpt>
      <trkpt lat="49.125874" lon="10.738193">
        <ele>415.334829</ele>
        <time>2026-05-05T13:01:05.445Z</time>
      </trkpt>
      <trkpt lat="49.125574" lon="10.738093">
        <ele>415.295570</ele>
        <time>2026-05-05T13:01:11.704Z</time>
      </trkpt>
      <trkpt lat="49.125089" lon="10.737749">
        <ele>415.194698</ele>
        <time>2026-05-05T13:01:22.610Z</time>
      </trkpt>
      <trkpt lat="49.124990" lon="10.737720">
        <ele>415.168814</ele>
        <time>2026-05-05T13:01:24.729Z</time>
      </trkpt>
      <trkpt lat="49.124875" lon="10.737770">
        <ele>415.138112</ele>
        <time>2026-05-05T13:01:27.225Z</time>
      </trkpt>
      <trkpt lat="49.124809" lon="10.737866">
        <ele>415.114714</ele>
        <time>2026-05-05T13:01:29.107Z</time>
      </trkpt>
      <trkpt lat="49.124777" lon="10.738029">
        <ele>415.086117</ele>
        <time>2026-05-05T13:01:31.437Z</time>
      </trkpt>
      <trkpt lat="49.124837" lon="10.738349">
        <ele>415.030180</ele>
        <time>2026-05-05T13:01:35.991Z</time>
      </trkpt>
      <trkpt lat="49.124844" lon="10.738556">
        <ele>414.995349</ele>
        <time>2026-05-05T13:01:38.861Z</time>
      </trkpt>
      <trkpt lat="49.124849" lon="10.738906">
        <ele>414.936520</ele>
        <time>2026-05-05T13:01:43.813Z</time>
      </trkpt>
      <trkpt lat="49.124893" lon="10.739138">
        <ele>414.895930</ele>
        <time>2026-05-05T13:01:47.297Z</time>
      </trkpt>
      <trkpt lat="49.124896" lon="10.739359">
        <ele>414.858785</ele>
        <time>2026-05-05T13:01:50.546Z</time>
      </trkpt>
      <trkpt lat="49.124893" lon="10.739540">
        <ele>414.828360</ele>
        <time>2026-05-05T13:01:53.270Z</time>
      </trkpt>
      <trkpt lat="49.124858" lon="10.740154">
        <ele>414.666110</ele>
        <time>2026-05-05T13:02:02.373Z</time>
      </trkpt>
      <trkpt lat="49.124846" lon="10.740383">
        <ele>414.596384</ele>
        <time>2026-05-05T13:02:05.682Z</time>
      </trkpt>
      <trkpt lat="49.124778" lon="10.740753">
        <ele>414.479741</ele>
        <time>2026-05-05T13:02:11.044Z</time>
      </trkpt>
      <trkpt lat="49.124672" lon="10.741044">
        <ele>414.378659</ele>
        <time>2026-05-05T13:02:15.554Z</time>
      </trkpt>
      <trkpt lat="49.124280" lon="10.741688">
        <ele>414.111716</ele>
        <time>2026-05-05T13:02:27.108Z</time>
      </trkpt>
      <trkpt lat="49.124206" lon="10.741867">
        <ele>414.047454</ele>
        <time>2026-05-05T13:02:29.806Z</time>
      </trkpt>
      <trkpt lat="49.124136" lon="10.742134">
        <ele>413.960087</ele>
        <time>2026-05-05T13:02:33.423Z</time>
      </trkpt>
      <trkpt lat="49.124111" lon="10.742371">
        <ele>413.885689</ele>
        <time>2026-05-05T13:02:36.437Z</time>
      </trkpt>
      <trkpt lat="49.124123" lon="10.742699">
        <ele>413.783878</ele>
        <time>2026-05-05T13:02:40.566Z</time>
      </trkpt>
      <trkpt lat="49.124175" lon="10.743034">
        <ele>413.677176</ele>
        <time>2026-05-05T13:02:45.014Z</time>
      </trkpt>
      <trkpt lat="49.124359" lon="10.743827">
        <ele>413.416424</ele>
        <time>2026-05-05T13:02:56.170Z</time>
      </trkpt>
      <trkpt lat="49.124428" lon="10.744222">
        <ele>413.289722</ele>
        <time>2026-05-05T13:03:01.791Z</time>
      </trkpt>
      <trkpt lat="49.124459" lon="10.744649">
        <ele>413.156577</ele>
        <time>2026-05-05T13:03:07.885Z</time>
      </trkpt>
      <trkpt lat="49.124397" lon="10.745817">
        <ele>413.514620</ele>
        <time>2026-05-05T13:03:26.316Z</time>
      </trkpt>
      <trkpt lat="49.124400" lon="10.746122">
        <ele>413.634352</ele>
        <time>2026-05-05T13:03:31.469Z</time>
      </trkpt>
      <trkpt lat="49.124425" lon="10.746441">
        <ele>413.760461</ele>
        <time>2026-05-05T13:03:36.856Z</time>
      </trkpt>
      <trkpt lat="49.124505" lon="10.746982">
        <ele>413.978168</ele>
        <time>2026-05-05T13:03:46.012Z</time>
      </trkpt>
      <trkpt lat="49.124622" lon="10.747599">
        <ele>414.206646</ele>
        <time>2026-05-05T13:03:56.754Z</time>
      </trkpt>
      <trkpt lat="49.124627" lon="10.748054">
        <ele>414.279259</ele>
        <time>2026-05-05T13:04:04.497Z</time>
      </trkpt>
      <trkpt lat="49.124586" lon="10.748220">
        <ele>414.307571</ele>
        <time>2026-05-05T13:04:07.519Z</time>
      </trkpt>
      <trkpt lat="49.124507" lon="10.748326">
        <ele>414.333205</ele>
        <time>2026-05-05T13:04:10.239Z</time>
      </trkpt>
      <trkpt lat="49.124311" lon="10.748476">
        <ele>414.386655</ele>
        <time>2026-05-05T13:04:15.831Z</time>
      </trkpt>
      <trkpt lat="49.124204" lon="10.748499">
        <ele>414.413002</ele>
        <time>2026-05-05T13:04:18.451Z</time>
      </trkpt>
      <trkpt lat="49.124090" lon="10.748467">
        <ele>414.441263</ele>
        <time>2026-05-05T13:04:21.144Z</time>
      </trkpt>
      <trkpt lat="49.123995" lon="10.748392">
        <ele>414.467336</ele>
        <time>2026-05-05T13:04:23.546Z</time>
      </trkpt>
      <trkpt lat="49.123846" lon="10.748157">
        <ele>414.519548</ele>
        <time>2026-05-05T13:04:28.072Z</time>
      </trkpt>
      <trkpt lat="49.123759" lon="10.748224">
        <ele>414.543303</ele>
        <time>2026-05-05T13:04:30.064Z</time>
      </trkpt>
      <trkpt lat="49.123636" lon="10.747915">
        <ele>414.601015</ele>
        <time>2026-05-05T13:04:34.876Z</time>
      </trkpt>
      <trkpt lat="49.123524" lon="10.747849">
        <ele>414.626644</ele>
        <time>2026-05-05T13:04:37.332Z</time>
      </trkpt>
      <trkpt lat="49.123239" lon="10.747837">
        <ele>414.499532</ele>
        <time>2026-05-05T13:04:43.081Z</time>
      </trkpt>
      <trkpt lat="49.122867" lon="10.747971">
        <ele>414.329133</ele>
        <time>2026-05-05T13:04:50.616Z</time>
      </trkpt>
      <trkpt lat="49.122241" lon="10.748275">
        <ele>414.036280</ele>
        <time>2026-05-05T13:05:03.687Z</time>
      </trkpt>
      <trkpt lat="49.121895" lon="10.748331">
        <ele>413.881156</ele>
        <time>2026-05-05T13:05:11.449Z</time>
      </trkpt>
      <trkpt lat="49.121442" lon="10.748449">
        <ele>413.868185</ele>
        <time>2026-05-05T13:05:22.336Z</time>
      </trkpt>
      <trkpt lat="49.120971" lon="10.748635">
        <ele>413.927287</ele>
        <time>2026-05-05T13:05:33.470Z</time>
      </trkpt>
      <trkpt lat="49.120675" lon="10.748891">
        <ele>413.968610</ele>
        <time>2026-05-05T13:05:41.016Z</time>
      </trkpt>
      <trkpt lat="49.120006" lon="10.749634">
        <ele>414.126810</ele>
        <time>2026-05-05T13:05:59.765Z</time>
      </trkpt>
      <trkpt lat="49.119634" lon="10.750149">
        <ele>414.337706</ele>
        <time>2026-05-05T13:06:11.975Z</time>
      </trkpt>
      <trkpt lat="49.119359" lon="10.750723">
        <ele>414.533302</ele>
        <time>2026-05-05T13:06:23.405Z</time>
      </trkpt>
      <trkpt lat="49.119253" lon="10.750915">
        <ele>414.602369</ele>
        <time>2026-05-05T13:06:27.615Z</time>
      </trkpt>
      <trkpt lat="49.119154" lon="10.751035">
        <ele>414.655460</ele>
        <time>2026-05-05T13:06:30.840Z</time>
      </trkpt>
      <trkpt lat="49.119069" lon="10.751134">
        <ele>414.700363</ele>
        <time>2026-05-05T13:06:33.485Z</time>
      </trkpt>
      <trkpt lat="49.118889" lon="10.751346">
        <ele>414.795844</ele>
        <time>2026-05-05T13:06:39.009Z</time>
      </trkpt>
      <trkpt lat="49.118715" lon="10.751600">
        <ele>414.645150</ele>
        <time>2026-05-05T13:06:44.471Z</time>
      </trkpt>
      <trkpt lat="49.118583" lon="10.751259">
        <ele>414.467430</ele>
        <time>2026-05-05T13:06:49.961Z</time>
      </trkpt>
      <trkpt lat="49.118460" lon="10.751105">
        <ele>414.358437</ele>
        <time>2026-05-05T13:06:54.242Z</time>
      </trkpt>
      <trkpt lat="49.118319" lon="10.750807">
        <ele>414.193484</ele>
        <time>2026-05-05T13:06:58.831Z</time>
      </trkpt>
      <trkpt lat="49.118289" lon="10.750801">
        <ele>414.172747</ele>
        <time>2026-05-05T13:06:59.409Z</time>
      </trkpt>
      <trkpt lat="49.117977" lon="10.750284">
        <ele>413.857284</ele>
        <time>2026-05-05T13:07:08.185Z</time>
      </trkpt>
      <trkpt lat="49.117923" lon="10.750232">
        <ele>413.813535</ele>
        <time>2026-05-05T13:07:09.425Z</time>
      </trkpt>
      <trkpt lat="49.117515" lon="10.750459">
        <ele>413.545636</ele>
        <time>2026-05-05T13:07:17.567Z</time>
      </trkpt>
      <trkpt lat="49.117194" lon="10.750718">
        <ele>413.437476</ele>
        <time>2026-05-05T13:07:24.561Z</time>
      </trkpt>
      <trkpt lat="49.116729" lon="10.751077">
        <ele>413.282245</ele>
        <time>2026-05-05T13:07:35.501Z</time>
      </trkpt>
      <trkpt lat="49.116571" lon="10.751112">
        <ele>413.234677</ele>
        <time>2026-05-05T13:07:39.104Z</time>
      </trkpt>
      <trkpt lat="49.116489" lon="10.751171">
        <ele>413.207671</ele>
        <time>2026-05-05T13:07:41.189Z</time>
      </trkpt>
      <trkpt lat="49.116406" lon="10.751234">
        <ele>413.180057</ele>
        <time>2026-05-05T13:07:43.316Z</time>
      </trkpt>
      <trkpt lat="49.116238" lon="10.751360">
        <ele>413.124296</ele>
        <time>2026-05-05T13:07:47.574Z</time>
      </trkpt>
      <trkpt lat="49.115786" lon="10.751952">
        <ele>413.084288</ele>
        <time>2026-05-05T13:08:01.547Z</time>
      </trkpt>
      <trkpt lat="49.115559" lon="10.752082">
        <ele>413.127894</ele>
        <time>2026-05-05T13:08:07.290Z</time>
      </trkpt>
      <trkpt lat="49.115448" lon="10.752057">
        <ele>413.148075</ele>
        <time>2026-05-05T13:08:09.840Z</time>
      </trkpt>
      <trkpt lat="49.115411" lon="10.752057">
        <ele>413.154731</ele>
        <time>2026-05-05T13:08:10.738Z</time>
      </trkpt>
      <trkpt lat="49.115327" lon="10.752131">
        <ele>413.172172</ele>
        <time>2026-05-05T13:08:12.907Z</time>
      </trkpt>
      <trkpt lat="49.115327" lon="10.752290">
        <ele>413.190892</ele>
        <time>2026-05-05T13:08:15.330Z</time>
      </trkpt>
      <trkpt lat="49.115186" lon="10.752519">
        <ele>413.227908</ele>
        <time>2026-05-05T13:08:19.976Z</time>
      </trkpt>
      <trkpt lat="49.115195" lon="10.752610">
        <ele>413.238744</ele>
        <time>2026-05-05T13:08:21.840Z</time>
      </trkpt>
      <trkpt lat="49.114978" lon="10.752719">
        <ele>413.279832</ele>
        <time>2026-05-05T13:08:27.039Z</time>
      </trkpt>
      <trkpt lat="49.114591" lon="10.752911">
        <ele>413.353022</ele>
        <time>2026-05-05T13:08:36.424Z</time>
      </trkpt>
      <trkpt lat="49.114147" lon="10.753154">
        <ele>413.575381</ele>
        <time>2026-05-05T13:08:48.004Z</time>
      </trkpt>
      <trkpt lat="49.114049" lon="10.753224">
        <ele>413.627575</ele>
        <time>2026-05-05T13:08:50.578Z</time>
      </trkpt>
      <trkpt lat="49.113949" lon="10.753296">
        <ele>413.680911</ele>
        <time>2026-05-05T13:08:53.268Z</time>
      </trkpt>
      <trkpt lat="49.113837" lon="10.753378">
        <ele>413.740831</ele>
        <time>2026-05-05T13:08:56.363Z</time>
      </trkpt>
      <trkpt lat="49.113359" lon="10.753801">
        <ele>414.007343</ele>
        <time>2026-05-05T13:09:10.910Z</time>
      </trkpt>
      <trkpt lat="49.113186" lon="10.753952">
        <ele>414.103470</ele>
        <time>2026-05-05T13:09:16.139Z</time>
      </trkpt>
      <trkpt lat="49.112473" lon="10.754568">
        <ele>414.364282</ele>
        <time>2026-05-05T13:09:36.893Z</time>
      </trkpt>
      <trkpt lat="49.112087" lon="10.754860">
        <ele>414.470465</ele>
        <time>2026-05-05T13:09:46.865Z</time>
      </trkpt>
      <trkpt lat="49.111879" lon="10.754941">
        <ele>414.523381</ele>
        <time>2026-05-05T13:09:52.031Z</time>
      </trkpt>
      <trkpt lat="49.111824" lon="10.754962">
        <ele>414.537356</ele>
        <time>2026-05-05T13:09:53.393Z</time>
      </trkpt>
      <trkpt lat="49.111765" lon="10.754996">
        <ele>414.552901</ele>
        <time>2026-05-05T13:09:54.953Z</time>
      </trkpt>
      <trkpt lat="49.111695" lon="10.754960">
        <ele>414.571109</ele>
        <time>2026-05-05T13:09:56.693Z</time>
      </trkpt>
      <trkpt lat="49.111577" lon="10.754950">
        <ele>414.600243</ele>
        <time>2026-05-05T13:09:59.494Z</time>
      </trkpt>
      <trkpt lat="49.111525" lon="10.754946">
        <ele>414.613078</ele>
        <time>2026-05-05T13:10:01.011Z</time>
      </trkpt>
      <trkpt lat="49.111425" lon="10.754938">
        <ele>414.637764</ele>
        <time>2026-05-05T13:10:03.933Z</time>
      </trkpt>
      <trkpt lat="49.111297" lon="10.754933">
        <ele>414.667277</ele>
        <time>2026-05-05T13:10:07.644Z</time>
      </trkpt>
      <trkpt lat="49.111256" lon="10.754936">
        <ele>414.667277</ele>
        <time>2026-05-05T13:10:08.804Z</time>
      </trkpt>
      <trkpt lat="49.111093" lon="10.754944">
        <ele>414.667277</ele>
        <time>2026-05-05T13:10:12.337Z</time>
      </trkpt>
      <trkpt lat="49.111056" lon="10.755032">
        <ele>414.667277</ele>
        <time>2026-05-05T13:10:14.336Z</time>
      </trkpt>
      <trkpt lat="49.110767" lon="10.755040">
        <ele>414.667277</ele>
        <time>2026-05-05T13:10:25.267Z</time>
      </trkpt>
      <trkpt lat="49.110655" lon="10.755356">
        <ele>414.667277</ele>
        <time>2026-05-05T13:10:32.459Z</time>
      </trkpt>
      <trkpt lat="49.110646" lon="10.755508">
        <ele>414.667277</ele>
        <time>2026-05-05T13:10:35.504Z</time>
      </trkpt>
      <trkpt lat="49.110528" lon="10.755470">
        <ele>414.667277</ele>
        <time>2026-05-05T13:10:38.417Z</time>
      </trkpt>
      <trkpt lat="49.110307" lon="10.755499">
        <ele>414.667277</ele>
        <time>2026-05-05T13:10:43.778Z</time>
      </trkpt>
      <trkpt lat="49.110244" lon="10.755386">
        <ele>414.667277</ele>
        <time>2026-05-05T13:10:46.806Z</time>
      </trkpt>
      <trkpt lat="49.110278" lon="10.755257">
        <ele>414.667277</ele>
        <time>2026-05-05T13:10:49.644Z</time>
      </trkpt>
      <trkpt lat="49.110341" lon="10.755098">
        <ele>414.667277</ele>
        <time>2026-05-05T13:10:52.498Z</time>
      </trkpt>
    </trkseg>
  </trk>
</gpx>